<?xml version="1.0" encoding="UTF-8" standalone="no" ?>
<gpx xmlns="http://www.topografix.com/GPX/1/1" xmlns:xsi="http://www.w3.org/2001/XMLSchema-instance" xsi:schemaLocation="http://www.topografix.com/GPX/1/1 http://www.topografix.com/GPX/1/1/gpx.xsd" version="1.1" creator="VisuGPX - https://www.visugpx.com">
  <metadata>
    <name>rando lundi 26 octo</name>
    <desc><![CDATA[deux \"tapares\" au 3° et 9° km]]></desc>
  </metadata>
  <trk>
    <name><![CDATA[rando lundi 26 octo_1]]></name>
    <trkseg>
      <trkpt lat="44.04849" lon="0.36545">
        <ele>4</ele>
        <time>2015-10-20T11:29:40Z</time>
      </trkpt>
      <trkpt lat="44.04845" lon="0.36533">
        <ele>4</ele>
        <time>2015-10-20T11:30:17Z</time>
      </trkpt>
      <trkpt lat="44.0484" lon="0.36522">
        <ele>5</ele>
        <time>2015-10-20T11:30:30Z</time>
      </trkpt>
      <trkpt lat="44.04835" lon="0.3651">
        <ele>5</ele>
        <time>2015-10-20T11:30:39Z</time>
      </trkpt>
      <trkpt lat="44.04829" lon="0.365">
        <ele>5</ele>
        <time>2015-10-20T11:30:58Z</time>
      </trkpt>
      <trkpt lat="44.04823" lon="0.36489">
        <ele>5</ele>
        <time>2015-10-20T11:31:09Z</time>
      </trkpt>
      <trkpt lat="44.04816" lon="0.36479">
        <ele>5</ele>
        <time>2015-10-20T11:31:17Z</time>
      </trkpt>
      <trkpt lat="44.04809" lon="0.3647">
        <ele>5</ele>
        <time>2015-10-20T11:31:27Z</time>
      </trkpt>
      <trkpt lat="44.048" lon="0.36462">
        <ele>5</ele>
        <time>2015-10-20T11:31:35Z</time>
      </trkpt>
      <trkpt lat="44.04792" lon="0.36455">
        <ele>5</ele>
        <time>2015-10-20T11:31:42Z</time>
      </trkpt>
      <trkpt lat="44.04782" lon="0.36449">
        <ele>5</ele>
        <time>2015-10-20T11:31:52Z</time>
      </trkpt>
      <trkpt lat="44.04774" lon="0.36443">
        <ele>5</ele>
        <time>2015-10-20T11:31:59Z</time>
      </trkpt>
      <trkpt lat="44.04766" lon="0.36437">
        <ele>5</ele>
        <time>2015-10-20T11:32:07Z</time>
      </trkpt>
      <trkpt lat="44.04757" lon="0.3643">
        <ele>5</ele>
        <time>2015-10-20T11:32:16Z</time>
      </trkpt>
      <trkpt lat="44.04749" lon="0.36423">
        <ele>5</ele>
        <time>2015-10-20T11:32:22Z</time>
      </trkpt>
      <trkpt lat="44.0474" lon="0.36417">
        <ele>5</ele>
        <time>2015-10-20T11:32:32Z</time>
      </trkpt>
      <trkpt lat="44.04732" lon="0.36411">
        <ele>5</ele>
        <time>2015-10-20T11:32:40Z</time>
      </trkpt>
      <trkpt lat="44.04722" lon="0.36408">
        <ele>5</ele>
        <time>2015-10-20T11:32:48Z</time>
      </trkpt>
      <trkpt lat="44.04712" lon="0.36404">
        <ele>5</ele>
        <time>2015-10-20T11:33:01Z</time>
      </trkpt>
      <trkpt lat="44.04703" lon="0.36399">
        <ele>5</ele>
        <time>2015-10-20T11:33:08Z</time>
      </trkpt>
      <trkpt lat="44.04694" lon="0.36396">
        <ele>1</ele>
        <time>2015-10-20T11:33:17Z</time>
      </trkpt>
      <trkpt lat="44.04685" lon="0.364">
        <ele>1</ele>
        <time>2015-10-20T11:33:25Z</time>
      </trkpt>
      <trkpt lat="44.04678" lon="0.3641">
        <ele>1</ele>
        <time>2015-10-20T11:33:33Z</time>
      </trkpt>
      <trkpt lat="44.0467" lon="0.36415">
        <ele>1</ele>
        <time>2015-10-20T11:33:43Z</time>
      </trkpt>
      <trkpt lat="44.04665" lon="0.36404">
        <ele>1</ele>
        <time>2015-10-20T11:33:52Z</time>
      </trkpt>
      <trkpt lat="44.04664" lon="0.36391">
        <ele>1</ele>
        <time>2015-10-20T11:34:01Z</time>
      </trkpt>
      <trkpt lat="44.04657" lon="0.36381">
        <ele>1</ele>
        <time>2015-10-20T11:34:10Z</time>
      </trkpt>
      <trkpt lat="44.04648" lon="0.36377">
        <ele>1</ele>
        <time>2015-10-20T11:34:19Z</time>
      </trkpt>
      <trkpt lat="44.0464" lon="0.36372">
        <ele>1</ele>
        <time>2015-10-20T11:34:29Z</time>
      </trkpt>
      <trkpt lat="44.04634" lon="0.36361">
        <ele>1</ele>
        <time>2015-10-20T11:34:38Z</time>
      </trkpt>
      <trkpt lat="44.04633" lon="0.36348">
        <ele>1</ele>
        <time>2015-10-20T11:34:50Z</time>
      </trkpt>
      <trkpt lat="44.04634" lon="0.36335">
        <ele>1</ele>
        <time>2015-10-20T11:35:00Z</time>
      </trkpt>
      <trkpt lat="44.04636" lon="0.36323">
        <ele>6</ele>
        <time>2015-10-20T11:35:13Z</time>
      </trkpt>
      <trkpt lat="44.04639" lon="0.36309">
        <ele>6</ele>
        <time>2015-10-20T11:35:22Z</time>
      </trkpt>
      <trkpt lat="44.04641" lon="0.36297">
        <ele>6</ele>
        <time>2015-10-20T11:35:32Z</time>
      </trkpt>
      <trkpt lat="44.04644" lon="0.36285">
        <ele>6</ele>
        <time>2015-10-20T11:35:41Z</time>
      </trkpt>
      <trkpt lat="44.04646" lon="0.36271">
        <ele>10</ele>
        <time>2015-10-20T11:35:48Z</time>
      </trkpt>
      <trkpt lat="44.04647" lon="0.36257">
        <ele>10</ele>
        <time>2015-10-20T11:35:56Z</time>
      </trkpt>
      <trkpt lat="44.04648" lon="0.36244">
        <ele>10</ele>
        <time>2015-10-20T11:36:03Z</time>
      </trkpt>
      <trkpt lat="44.04649" lon="0.36231">
        <ele>10</ele>
        <time>2015-10-20T11:36:09Z</time>
      </trkpt>
      <trkpt lat="44.0465" lon="0.36218">
        <ele>10</ele>
        <time>2015-10-20T11:36:16Z</time>
      </trkpt>
      <trkpt lat="44.04651" lon="0.36205">
        <ele>10</ele>
        <time>2015-10-20T11:36:25Z</time>
      </trkpt>
      <trkpt lat="44.04652" lon="0.36192">
        <ele>10</ele>
        <time>2015-10-20T11:36:32Z</time>
      </trkpt>
      <trkpt lat="44.04652" lon="0.36179">
        <ele>15</ele>
        <time>2015-10-20T11:36:41Z</time>
      </trkpt>
      <trkpt lat="44.04652" lon="0.36165">
        <ele>15</ele>
        <time>2015-10-20T11:36:49Z</time>
      </trkpt>
      <trkpt lat="44.04652" lon="0.36151">
        <ele>15</ele>
        <time>2015-10-20T11:36:56Z</time>
      </trkpt>
      <trkpt lat="44.04653" lon="0.36138">
        <ele>15</ele>
        <time>2015-10-20T11:37:05Z</time>
      </trkpt>
      <trkpt lat="44.04653" lon="0.36125">
        <ele>15</ele>
        <time>2015-10-20T11:37:13Z</time>
      </trkpt>
      <trkpt lat="44.04655" lon="0.36112">
        <ele>20</ele>
        <time>2015-10-20T11:37:20Z</time>
      </trkpt>
      <trkpt lat="44.04656" lon="0.36099">
        <ele>20</ele>
        <time>2015-10-20T11:37:30Z</time>
      </trkpt>
      <trkpt lat="44.04657" lon="0.36085">
        <ele>20</ele>
        <time>2015-10-20T11:37:38Z</time>
      </trkpt>
      <trkpt lat="44.04659" lon="0.36072">
        <ele>20</ele>
        <time>2015-10-20T11:37:46Z</time>
      </trkpt>
      <trkpt lat="44.0466" lon="0.36059">
        <ele>20</ele>
        <time>2015-10-20T11:37:55Z</time>
      </trkpt>
      <trkpt lat="44.04661" lon="0.36046">
        <ele>24</ele>
        <time>2015-10-20T11:38:02Z</time>
      </trkpt>
      <trkpt lat="44.0466" lon="0.36032">
        <ele>24</ele>
        <time>2015-10-20T11:38:13Z</time>
      </trkpt>
      <trkpt lat="44.04658" lon="0.36019">
        <ele>24</ele>
        <time>2015-10-20T11:38:23Z</time>
      </trkpt>
      <trkpt lat="44.04656" lon="0.36006">
        <ele>24</ele>
        <time>2015-10-20T11:38:35Z</time>
      </trkpt>
      <trkpt lat="44.04656" lon="0.35993">
        <ele>24</ele>
        <time>2015-10-20T11:38:43Z</time>
      </trkpt>
      <trkpt lat="44.04656" lon="0.3598">
        <ele>24</ele>
        <time>2015-10-20T11:38:52Z</time>
      </trkpt>
      <trkpt lat="44.04657" lon="0.35966">
        <ele>28</ele>
        <time>2015-10-20T11:39:02Z</time>
      </trkpt>
      <trkpt lat="44.04661" lon="0.35952">
        <ele>28</ele>
        <time>2015-10-20T11:39:09Z</time>
      </trkpt>
      <trkpt lat="44.04664" lon="0.35939">
        <ele>28</ele>
        <time>2015-10-20T11:39:17Z</time>
      </trkpt>
      <trkpt lat="44.04668" lon="0.35928">
        <ele>28</ele>
        <time>2015-10-20T11:39:23Z</time>
      </trkpt>
      <trkpt lat="44.0467" lon="0.35915">
        <ele>28</ele>
        <time>2015-10-20T11:39:31Z</time>
      </trkpt>
      <trkpt lat="44.04675" lon="0.35903">
        <ele>28</ele>
        <time>2015-10-20T11:39:42Z</time>
      </trkpt>
      <trkpt lat="44.04679" lon="0.3589">
        <ele>28</ele>
        <time>2015-10-20T11:39:52Z</time>
      </trkpt>
      <trkpt lat="44.04682" lon="0.35877">
        <ele>28</ele>
        <time>2015-10-20T11:39:59Z</time>
      </trkpt>
      <trkpt lat="44.04683" lon="0.35865">
        <ele>28</ele>
        <time>2015-10-20T11:40:07Z</time>
      </trkpt>
      <trkpt lat="44.04682" lon="0.35852">
        <ele>28</ele>
        <time>2015-10-20T11:40:15Z</time>
      </trkpt>
      <trkpt lat="44.04681" lon="0.35839">
        <ele>28</ele>
        <time>2015-10-20T11:40:22Z</time>
      </trkpt>
      <trkpt lat="44.04678" lon="0.35826">
        <ele>32</ele>
        <time>2015-10-20T11:40:31Z</time>
      </trkpt>
      <trkpt lat="44.04673" lon="0.35814">
        <ele>32</ele>
        <time>2015-10-20T11:40:38Z</time>
      </trkpt>
      <trkpt lat="44.04668" lon="0.35803">
        <ele>32</ele>
        <time>2015-10-20T11:40:46Z</time>
      </trkpt>
      <trkpt lat="44.04662" lon="0.35792">
        <ele>32</ele>
        <time>2015-10-20T11:40:55Z</time>
      </trkpt>
      <trkpt lat="44.04655" lon="0.35781">
        <ele>32</ele>
        <time>2015-10-20T11:41:02Z</time>
      </trkpt>
      <trkpt lat="44.04649" lon="0.3577">
        <ele>36</ele>
        <time>2015-10-20T11:41:11Z</time>
      </trkpt>
      <trkpt lat="44.04644" lon="0.35759">
        <ele>36</ele>
        <time>2015-10-20T11:41:20Z</time>
      </trkpt>
      <trkpt lat="44.04638" lon="0.3575">
        <ele>36</ele>
        <time>2015-10-20T11:41:26Z</time>
      </trkpt>
      <trkpt lat="44.04631" lon="0.35739">
        <ele>36</ele>
        <time>2015-10-20T11:41:35Z</time>
      </trkpt>
      <trkpt lat="44.04625" lon="0.35729">
        <ele>36</ele>
        <time>2015-10-20T11:41:42Z</time>
      </trkpt>
      <trkpt lat="44.0462" lon="0.35719">
        <ele>36</ele>
        <time>2015-10-20T11:41:48Z</time>
      </trkpt>
      <trkpt lat="44.04614" lon="0.35709">
        <ele>36</ele>
        <time>2015-10-20T11:41:56Z</time>
      </trkpt>
      <trkpt lat="44.04608" lon="0.35699">
        <ele>36</ele>
        <time>2015-10-20T11:42:03Z</time>
      </trkpt>
      <trkpt lat="44.04603" lon="0.35689">
        <ele>36</ele>
        <time>2015-10-20T11:42:10Z</time>
      </trkpt>
      <trkpt lat="44.04596" lon="0.35678">
        <ele>36</ele>
        <time>2015-10-20T11:42:19Z</time>
      </trkpt>
      <trkpt lat="44.0459" lon="0.35668">
        <ele>36</ele>
        <time>2015-10-20T11:42:27Z</time>
      </trkpt>
      <trkpt lat="44.04585" lon="0.35658">
        <ele>36</ele>
        <time>2015-10-20T11:42:34Z</time>
      </trkpt>
      <trkpt lat="44.04579" lon="0.35647">
        <ele>36</ele>
        <time>2015-10-20T11:42:43Z</time>
      </trkpt>
      <trkpt lat="44.04573" lon="0.35637">
        <ele>36</ele>
        <time>2015-10-20T11:42:51Z</time>
      </trkpt>
      <trkpt lat="44.04566" lon="0.35627">
        <ele>36</ele>
        <time>2015-10-20T11:42:58Z</time>
      </trkpt>
      <trkpt lat="44.04559" lon="0.35618">
        <ele>40</ele>
        <time>2015-10-20T11:43:07Z</time>
      </trkpt>
      <trkpt lat="44.04552" lon="0.35609">
        <ele>40</ele>
        <time>2015-10-20T11:43:14Z</time>
      </trkpt>
      <trkpt lat="44.04544" lon="0.35602">
        <ele>40</ele>
        <time>2015-10-20T11:43:21Z</time>
      </trkpt>
      <trkpt lat="44.04536" lon="0.35593">
        <ele>40</ele>
        <time>2015-10-20T11:43:30Z</time>
      </trkpt>
      <trkpt lat="44.04529" lon="0.35585">
        <ele>40</ele>
        <time>2015-10-20T11:43:37Z</time>
      </trkpt>
      <trkpt lat="44.04522" lon="0.35576">
        <ele>40</ele>
        <time>2015-10-20T11:43:45Z</time>
      </trkpt>
      <trkpt lat="44.04515" lon="0.35568">
        <ele>40</ele>
        <time>2015-10-20T11:43:54Z</time>
      </trkpt>
      <trkpt lat="44.04507" lon="0.3556">
        <ele>40</ele>
        <time>2015-10-20T11:44:02Z</time>
      </trkpt>
      <trkpt lat="44.04499" lon="0.35552">
        <ele>40</ele>
        <time>2015-10-20T11:44:11Z</time>
      </trkpt>
      <trkpt lat="44.0449" lon="0.35544">
        <ele>40</ele>
        <time>2015-10-20T11:44:19Z</time>
      </trkpt>
      <trkpt lat="44.04483" lon="0.35537">
        <ele>40</ele>
        <time>2015-10-20T11:44:25Z</time>
      </trkpt>
      <trkpt lat="44.04475" lon="0.3553">
        <ele>40</ele>
        <time>2015-10-20T11:44:33Z</time>
      </trkpt>
      <trkpt lat="44.04467" lon="0.35523">
        <ele>40</ele>
        <time>2015-10-20T11:44:42Z</time>
      </trkpt>
      <trkpt lat="44.04459" lon="0.35516">
        <ele>40</ele>
        <time>2015-10-20T11:44:49Z</time>
      </trkpt>
      <trkpt lat="44.04451" lon="0.35508">
        <ele>40</ele>
        <time>2015-10-20T11:44:58Z</time>
      </trkpt>
      <trkpt lat="44.04443" lon="0.355">
        <ele>45</ele>
        <time>2015-10-20T11:45:07Z</time>
      </trkpt>
      <trkpt lat="44.04435" lon="0.35492">
        <ele>45</ele>
        <time>2015-10-20T11:45:15Z</time>
      </trkpt>
      <trkpt lat="44.04428" lon="0.35485">
        <ele>45</ele>
        <time>2015-10-20T11:45:24Z</time>
      </trkpt>
      <trkpt lat="44.0442" lon="0.35477">
        <ele>45</ele>
        <time>2015-10-20T11:45:32Z</time>
      </trkpt>
      <trkpt lat="44.04412" lon="0.3547">
        <ele>45</ele>
        <time>2015-10-20T11:45:41Z</time>
      </trkpt>
      <trkpt lat="44.04405" lon="0.35462">
        <ele>45</ele>
        <time>2015-10-20T11:45:49Z</time>
      </trkpt>
      <trkpt lat="44.04397" lon="0.35455">
        <ele>45</ele>
        <time>2015-10-20T11:45:56Z</time>
      </trkpt>
      <trkpt lat="44.04389" lon="0.35448">
        <ele>45</ele>
        <time>2015-10-20T11:46:05Z</time>
      </trkpt>
      <trkpt lat="44.04381" lon="0.3544">
        <ele>45</ele>
        <time>2015-10-20T11:46:13Z</time>
      </trkpt>
      <trkpt lat="44.04374" lon="0.35434">
        <ele>40</ele>
        <time>2015-10-20T11:46:22Z</time>
      </trkpt>
      <trkpt lat="44.04366" lon="0.35427">
        <ele>40</ele>
        <time>2015-10-20T11:46:33Z</time>
      </trkpt>
      <trkpt lat="44.04356" lon="0.35424">
        <ele>40</ele>
        <time>2015-10-20T11:46:49Z</time>
      </trkpt>
      <trkpt lat="44.04347" lon="0.35425">
        <ele>34</ele>
        <time>2015-10-20T11:47:02Z</time>
      </trkpt>
      <trkpt lat="44.04337" lon="0.35426">
        <ele>30</ele>
        <time>2015-10-20T11:47:16Z</time>
      </trkpt>
      <trkpt lat="44.04328" lon="0.35426">
        <ele>30</ele>
        <time>2015-10-20T11:47:25Z</time>
      </trkpt>
      <trkpt lat="44.04318" lon="0.35427">
        <ele>30</ele>
        <time>2015-10-20T11:47:37Z</time>
      </trkpt>
      <trkpt lat="44.04308" lon="0.35429">
        <ele>30</ele>
        <time>2015-10-20T11:47:45Z</time>
      </trkpt>
      <trkpt lat="44.04298" lon="0.3543">
        <ele>30</ele>
        <time>2015-10-20T11:47:54Z</time>
      </trkpt>
      <trkpt lat="44.04288" lon="0.35432">
        <ele>30</ele>
        <time>2015-10-20T11:48:04Z</time>
      </trkpt>
      <trkpt lat="44.04279" lon="0.35434">
        <ele>24</ele>
        <time>2015-10-20T11:48:13Z</time>
      </trkpt>
      <trkpt lat="44.0427" lon="0.35434">
        <ele>24</ele>
        <time>2015-10-20T11:48:22Z</time>
      </trkpt>
      <trkpt lat="44.04261" lon="0.35436">
        <ele>24</ele>
        <time>2015-10-20T11:48:30Z</time>
      </trkpt>
      <trkpt lat="44.04251" lon="0.35436">
        <ele>24</ele>
        <time>2015-10-20T11:48:38Z</time>
      </trkpt>
      <trkpt lat="44.04242" lon="0.35433">
        <ele>20</ele>
        <time>2015-10-20T11:48:54Z</time>
      </trkpt>
      <trkpt lat="44.04241" lon="0.3542">
        <ele>20</ele>
        <time>2015-10-20T11:49:23Z</time>
      </trkpt>
      <trkpt lat="44.04241" lon="0.35407">
        <ele>20</ele>
        <time>2015-10-20T11:49:38Z</time>
      </trkpt>
      <trkpt lat="44.04243" lon="0.35394">
        <ele>20</ele>
        <time>2015-10-20T11:49:50Z</time>
      </trkpt>
      <trkpt lat="44.04248" lon="0.35382">
        <ele>20</ele>
        <time>2015-10-20T11:49:59Z</time>
      </trkpt>
      <trkpt lat="44.04254" lon="0.35372">
        <ele>20</ele>
        <time>2015-10-20T11:50:05Z</time>
      </trkpt>
      <trkpt lat="44.04259" lon="0.35361">
        <ele>20</ele>
        <time>2015-10-20T11:50:13Z</time>
      </trkpt>
      <trkpt lat="44.04265" lon="0.35351">
        <ele>20</ele>
        <time>2015-10-20T11:50:21Z</time>
      </trkpt>
      <trkpt lat="44.04272" lon="0.35341">
        <ele>20</ele>
        <time>2015-10-20T11:50:27Z</time>
      </trkpt>
      <trkpt lat="44.04277" lon="0.35331">
        <ele>20</ele>
        <time>2015-10-20T11:50:36Z</time>
      </trkpt>
      <trkpt lat="44.04283" lon="0.3532">
        <ele>20</ele>
        <time>2015-10-20T11:50:44Z</time>
      </trkpt>
      <trkpt lat="44.04288" lon="0.35311">
        <ele>20</ele>
        <time>2015-10-20T11:50:50Z</time>
      </trkpt>
      <trkpt lat="44.04294" lon="0.35299">
        <ele>20</ele>
        <time>2015-10-20T11:50:59Z</time>
      </trkpt>
      <trkpt lat="44.04301" lon="0.35289">
        <ele>20</ele>
        <time>2015-10-20T11:51:07Z</time>
      </trkpt>
      <trkpt lat="44.04308" lon="0.35279">
        <ele>20</ele>
        <time>2015-10-20T11:51:14Z</time>
      </trkpt>
      <trkpt lat="44.04314" lon="0.35269">
        <ele>20</ele>
        <time>2015-10-20T11:51:23Z</time>
      </trkpt>
      <trkpt lat="44.04318" lon="0.35257">
        <ele>20</ele>
        <time>2015-10-20T11:51:31Z</time>
      </trkpt>
      <trkpt lat="44.04322" lon="0.35246">
        <ele>20</ele>
        <time>2015-10-20T11:51:38Z</time>
      </trkpt>
      <trkpt lat="44.04327" lon="0.35234">
        <ele>20</ele>
        <time>2015-10-20T11:51:48Z</time>
      </trkpt>
      <trkpt lat="44.04334" lon="0.35225">
        <ele>20</ele>
        <time>2015-10-20T11:51:57Z</time>
      </trkpt>
      <trkpt lat="44.04339" lon="0.35214">
        <ele>20</ele>
        <time>2015-10-20T11:52:08Z</time>
      </trkpt>
      <trkpt lat="44.04345" lon="0.35204">
        <ele>20</ele>
        <time>2015-10-20T11:52:16Z</time>
      </trkpt>
      <trkpt lat="44.04352" lon="0.35194">
        <ele>20</ele>
        <time>2015-10-20T11:52:25Z</time>
      </trkpt>
      <trkpt lat="44.04358" lon="0.35184">
        <ele>20</ele>
        <time>2015-10-20T11:52:34Z</time>
      </trkpt>
      <trkpt lat="44.04364" lon="0.35173">
        <ele>20</ele>
        <time>2015-10-20T11:52:42Z</time>
      </trkpt>
      <trkpt lat="44.04369" lon="0.35162">
        <ele>20</ele>
        <time>2015-10-20T11:52:52Z</time>
      </trkpt>
      <trkpt lat="44.04375" lon="0.35153">
        <ele>25</ele>
        <time>2015-10-20T11:52:59Z</time>
      </trkpt>
      <trkpt lat="44.0438" lon="0.35141">
        <ele>25</ele>
        <time>2015-10-20T11:53:07Z</time>
      </trkpt>
      <trkpt lat="44.04387" lon="0.35131">
        <ele>25</ele>
        <time>2015-10-20T11:53:17Z</time>
      </trkpt>
      <trkpt lat="44.04392" lon="0.3512">
        <ele>25</ele>
        <time>2015-10-20T11:53:24Z</time>
      </trkpt>
      <trkpt lat="44.04398" lon="0.3511">
        <ele>25</ele>
        <time>2015-10-20T11:53:32Z</time>
      </trkpt>
      <trkpt lat="44.04404" lon="0.351">
        <ele>25</ele>
        <time>2015-10-20T11:53:41Z</time>
      </trkpt>
      <trkpt lat="44.0441" lon="0.3509">
        <ele>25</ele>
        <time>2015-10-20T11:53:47Z</time>
      </trkpt>
      <trkpt lat="44.04416" lon="0.3508">
        <ele>25</ele>
        <time>2015-10-20T11:53:54Z</time>
      </trkpt>
      <trkpt lat="44.04422" lon="0.3507">
        <ele>25</ele>
        <time>2015-10-20T11:54:03Z</time>
      </trkpt>
      <trkpt lat="44.04428" lon="0.3506">
        <ele>25</ele>
        <time>2015-10-20T11:54:09Z</time>
      </trkpt>
      <trkpt lat="44.04434" lon="0.35049">
        <ele>31</ele>
        <time>2015-10-20T11:54:19Z</time>
      </trkpt>
      <trkpt lat="44.04441" lon="0.35039">
        <ele>31</ele>
        <time>2015-10-20T11:54:27Z</time>
      </trkpt>
      <trkpt lat="44.04446" lon="0.35028">
        <ele>31</ele>
        <time>2015-10-20T11:54:34Z</time>
      </trkpt>
      <trkpt lat="44.04451" lon="0.35017">
        <ele>31</ele>
        <time>2015-10-20T11:54:44Z</time>
      </trkpt>
      <trkpt lat="44.04455" lon="0.35006">
        <ele>31</ele>
        <time>2015-10-20T11:54:53Z</time>
      </trkpt>
      <trkpt lat="44.04462" lon="0.34995">
        <ele>31</ele>
        <time>2015-10-20T11:55:00Z</time>
      </trkpt>
      <trkpt lat="44.04468" lon="0.34984">
        <ele>31</ele>
        <time>2015-10-20T11:55:10Z</time>
      </trkpt>
      <trkpt lat="44.04474" lon="0.34974">
        <ele>35</ele>
        <time>2015-10-20T11:55:17Z</time>
      </trkpt>
      <trkpt lat="44.0448" lon="0.34963">
        <ele>35</ele>
        <time>2015-10-20T11:55:25Z</time>
      </trkpt>
      <trkpt lat="44.04485" lon="0.34953">
        <ele>35</ele>
        <time>2015-10-20T11:55:34Z</time>
      </trkpt>
      <trkpt lat="44.0449" lon="0.34943">
        <ele>35</ele>
        <time>2015-10-20T11:55:41Z</time>
      </trkpt>
      <trkpt lat="44.04496" lon="0.34931">
        <ele>35</ele>
        <time>2015-10-20T11:55:51Z</time>
      </trkpt>
      <trkpt lat="44.045" lon="0.34919">
        <ele>35</ele>
        <time>2015-10-20T11:55:58Z</time>
      </trkpt>
      <trkpt lat="44.04505" lon="0.34907">
        <ele>35</ele>
        <time>2015-10-20T11:56:04Z</time>
      </trkpt>
      <trkpt lat="44.04511" lon="0.34896">
        <ele>35</ele>
        <time>2015-10-20T11:56:12Z</time>
      </trkpt>
      <trkpt lat="44.04517" lon="0.34885">
        <ele>35</ele>
        <time>2015-10-20T11:56:19Z</time>
      </trkpt>
      <trkpt lat="44.04523" lon="0.34874">
        <ele>35</ele>
        <time>2015-10-20T11:56:25Z</time>
      </trkpt>
      <trkpt lat="44.04528" lon="0.34863">
        <ele>35</ele>
        <time>2015-10-20T11:56:34Z</time>
      </trkpt>
      <trkpt lat="44.04532" lon="0.3485">
        <ele>35</ele>
        <time>2015-10-20T11:56:43Z</time>
      </trkpt>
      <trkpt lat="44.04537" lon="0.34839">
        <ele>35</ele>
        <time>2015-10-20T11:56:51Z</time>
      </trkpt>
      <trkpt lat="44.04541" lon="0.34827">
        <ele>35</ele>
        <time>2015-10-20T11:57:00Z</time>
      </trkpt>
      <trkpt lat="44.04545" lon="0.34815">
        <ele>35</ele>
        <time>2015-10-20T11:57:07Z</time>
      </trkpt>
      <trkpt lat="44.04549" lon="0.34804">
        <ele>35</ele>
        <time>2015-10-20T11:57:15Z</time>
      </trkpt>
      <trkpt lat="44.04554" lon="0.34793">
        <ele>35</ele>
        <time>2015-10-20T11:57:24Z</time>
      </trkpt>
      <trkpt lat="44.04559" lon="0.34783">
        <ele>35</ele>
        <time>2015-10-20T11:57:31Z</time>
      </trkpt>
      <trkpt lat="44.04565" lon="0.34772">
        <ele>35</ele>
        <time>2015-10-20T11:57:40Z</time>
      </trkpt>
      <trkpt lat="44.04566" lon="0.3476">
        <ele>35</ele>
        <time>2015-10-20T11:57:52Z</time>
      </trkpt>
      <trkpt lat="44.04565" lon="0.34747">
        <ele>35</ele>
        <time>2015-10-20T11:58:09Z</time>
      </trkpt>
      <trkpt lat="44.0456" lon="0.34737">
        <ele>35</ele>
        <time>2015-10-20T11:58:25Z</time>
      </trkpt>
      <trkpt lat="44.04552" lon="0.3473">
        <ele>35</ele>
        <time>2015-10-20T11:58:35Z</time>
      </trkpt>
      <trkpt lat="44.04543" lon="0.34723">
        <ele>35</ele>
        <time>2015-10-20T11:58:41Z</time>
      </trkpt>
      <trkpt lat="44.04535" lon="0.34715">
        <ele>40</ele>
        <time>2015-10-20T11:58:48Z</time>
      </trkpt>
      <trkpt lat="44.04527" lon="0.34708">
        <ele>40</ele>
        <time>2015-10-20T11:58:55Z</time>
      </trkpt>
      <trkpt lat="44.04518" lon="0.34702">
        <ele>40</ele>
        <time>2015-10-20T11:59:01Z</time>
      </trkpt>
      <trkpt lat="44.04512" lon="0.34692">
        <ele>40</ele>
        <time>2015-10-20T11:59:09Z</time>
      </trkpt>
      <trkpt lat="44.04503" lon="0.34691">
        <ele>40</ele>
        <time>2015-10-20T11:59:23Z</time>
      </trkpt>
      <trkpt lat="44.04495" lon="0.34684">
        <ele>40</ele>
        <time>2015-10-20T11:59:32Z</time>
      </trkpt>
      <trkpt lat="44.04488" lon="0.34674">
        <ele>40</ele>
        <time>2015-10-20T11:59:42Z</time>
      </trkpt>
      <trkpt lat="44.0448" lon="0.34667">
        <ele>40</ele>
        <time>2015-10-20T11:59:50Z</time>
      </trkpt>
      <trkpt lat="44.04472" lon="0.34659">
        <ele>40</ele>
        <time>2015-10-20T12:00:01Z</time>
      </trkpt>
      <trkpt lat="44.04465" lon="0.34651">
        <ele>40</ele>
        <time>2015-10-20T12:00:11Z</time>
      </trkpt>
      <trkpt lat="44.04458" lon="0.34641">
        <ele>40</ele>
        <time>2015-10-20T12:00:24Z</time>
      </trkpt>
      <trkpt lat="44.04451" lon="0.34632">
        <ele>40</ele>
        <time>2015-10-20T12:00:36Z</time>
      </trkpt>
      <trkpt lat="44.04445" lon="0.34622">
        <ele>36</ele>
        <time>2015-10-20T12:00:48Z</time>
      </trkpt>
      <trkpt lat="44.04438" lon="0.34613">
        <ele>36</ele>
        <time>2015-10-20T12:00:58Z</time>
      </trkpt>
      <trkpt lat="44.04429" lon="0.34609">
        <ele>36</ele>
        <time>2015-10-20T12:01:11Z</time>
      </trkpt>
      <trkpt lat="44.04419" lon="0.34607">
        <ele>31</ele>
        <time>2015-10-20T12:01:19Z</time>
      </trkpt>
      <trkpt lat="44.0441" lon="0.34606">
        <ele>31</ele>
        <time>2015-10-20T12:01:27Z</time>
      </trkpt>
      <trkpt lat="44.04401" lon="0.34601">
        <ele>31</ele>
        <time>2015-10-20T12:01:37Z</time>
      </trkpt>
      <trkpt lat="44.04392" lon="0.34597">
        <ele>31</ele>
        <time>2015-10-20T12:01:44Z</time>
      </trkpt>
      <trkpt lat="44.04383" lon="0.34592">
        <ele>31</ele>
        <time>2015-10-20T12:01:53Z</time>
      </trkpt>
      <trkpt lat="44.04374" lon="0.34589">
        <ele>31</ele>
        <time>2015-10-20T12:02:01Z</time>
      </trkpt>
      <trkpt lat="44.04365" lon="0.34589">
        <ele>31</ele>
        <time>2015-10-20T12:02:08Z</time>
      </trkpt>
      <trkpt lat="44.04355" lon="0.34591">
        <ele>36</ele>
        <time>2015-10-20T12:02:19Z</time>
      </trkpt>
      <trkpt lat="44.04346" lon="0.34591">
        <ele>36</ele>
        <time>2015-10-20T12:02:27Z</time>
      </trkpt>
      <trkpt lat="44.04337" lon="0.34589">
        <ele>41</ele>
        <time>2015-10-20T12:02:33Z</time>
      </trkpt>
      <trkpt lat="44.04327" lon="0.34586">
        <ele>41</ele>
        <time>2015-10-20T12:02:41Z</time>
      </trkpt>
      <trkpt lat="44.04318" lon="0.34583">
        <ele>41</ele>
        <time>2015-10-20T12:02:47Z</time>
      </trkpt>
      <trkpt lat="44.04309" lon="0.3458">
        <ele>41</ele>
        <time>2015-10-20T12:02:54Z</time>
      </trkpt>
      <trkpt lat="44.043" lon="0.34577">
        <ele>41</ele>
        <time>2015-10-20T12:03:02Z</time>
      </trkpt>
      <trkpt lat="44.04291" lon="0.34574">
        <ele>47</ele>
        <time>2015-10-20T12:03:11Z</time>
      </trkpt>
      <trkpt lat="44.04282" lon="0.34571">
        <ele>47</ele>
        <time>2015-10-20T12:03:18Z</time>
      </trkpt>
      <trkpt lat="44.04273" lon="0.34567">
        <ele>47</ele>
        <time>2015-10-20T12:03:27Z</time>
      </trkpt>
      <trkpt lat="44.04264" lon="0.34563">
        <ele>47</ele>
        <time>2015-10-20T12:03:34Z</time>
      </trkpt>
      <trkpt lat="44.04254" lon="0.3456">
        <ele>47</ele>
        <time>2015-10-20T12:03:42Z</time>
      </trkpt>
      <trkpt lat="44.04245" lon="0.34556">
        <ele>47</ele>
        <time>2015-10-20T12:04:00Z</time>
      </trkpt>
      <trkpt lat="44.04235" lon="0.34554">
        <ele>53</ele>
        <time>2015-10-20T12:04:10Z</time>
      </trkpt>
      <trkpt lat="44.04226" lon="0.34555">
        <ele>53</ele>
        <time>2015-10-20T12:04:20Z</time>
      </trkpt>
      <trkpt lat="44.04216" lon="0.34554">
        <ele>53</ele>
        <time>2015-10-20T12:04:29Z</time>
      </trkpt>
      <trkpt lat="44.04207" lon="0.34552">
        <ele>53</ele>
        <time>2015-10-20T12:04:38Z</time>
      </trkpt>
      <trkpt lat="44.04198" lon="0.34549">
        <ele>53</ele>
        <time>2015-10-20T12:04:45Z</time>
      </trkpt>
      <trkpt lat="44.04192" lon="0.34538">
        <ele>58</ele>
        <time>2015-10-20T12:04:56Z</time>
      </trkpt>
      <trkpt lat="44.04187" lon="0.34527">
        <ele>62</ele>
        <time>2015-10-20T12:05:05Z</time>
      </trkpt>
      <trkpt lat="44.04182" lon="0.34517">
        <ele>62</ele>
        <time>2015-10-20T12:05:15Z</time>
      </trkpt>
      <trkpt lat="44.04175" lon="0.34507">
        <ele>62</ele>
        <time>2015-10-20T12:05:24Z</time>
      </trkpt>
      <trkpt lat="44.04168" lon="0.34497">
        <ele>62</ele>
        <time>2015-10-20T12:05:32Z</time>
      </trkpt>
      <trkpt lat="44.04161" lon="0.34487">
        <ele>62</ele>
        <time>2015-10-20T12:05:43Z</time>
      </trkpt>
      <trkpt lat="44.04153" lon="0.34479">
        <ele>66</ele>
        <time>2015-10-20T12:05:52Z</time>
      </trkpt>
      <trkpt lat="44.04145" lon="0.34472">
        <ele>66</ele>
        <time>2015-10-20T12:06:02Z</time>
      </trkpt>
      <trkpt lat="44.04138" lon="0.34463">
        <ele>66</ele>
        <time>2015-10-20T12:06:11Z</time>
      </trkpt>
      <trkpt lat="44.04133" lon="0.34453">
        <ele>66</ele>
        <time>2015-10-20T12:06:21Z</time>
      </trkpt>
      <trkpt lat="44.04127" lon="0.34441">
        <ele>66</ele>
        <time>2015-10-20T12:06:30Z</time>
      </trkpt>
      <trkpt lat="44.0412" lon="0.34432">
        <ele>66</ele>
        <time>2015-10-20T12:06:40Z</time>
      </trkpt>
      <trkpt lat="44.04112" lon="0.34424">
        <ele>66</ele>
        <time>2015-10-20T12:06:50Z</time>
      </trkpt>
      <trkpt lat="44.04104" lon="0.34416">
        <ele>66</ele>
        <time>2015-10-20T12:06:57Z</time>
      </trkpt>
      <trkpt lat="44.04095" lon="0.3441">
        <ele>66</ele>
        <time>2015-10-20T12:07:06Z</time>
      </trkpt>
      <trkpt lat="44.04086" lon="0.34405">
        <ele>66</ele>
        <time>2015-10-20T12:07:15Z</time>
      </trkpt>
      <trkpt lat="44.04077" lon="0.344">
        <ele>66</ele>
        <time>2015-10-20T12:07:21Z</time>
      </trkpt>
      <trkpt lat="44.04068" lon="0.34396">
        <ele>66</ele>
        <time>2015-10-20T12:07:28Z</time>
      </trkpt>
      <trkpt lat="44.0406" lon="0.34391">
        <ele>66</ele>
        <time>2015-10-20T12:07:37Z</time>
      </trkpt>
      <trkpt lat="44.04051" lon="0.34385">
        <ele>66</ele>
        <time>2015-10-20T12:07:43Z</time>
      </trkpt>
      <trkpt lat="44.04044" lon="0.34377">
        <ele>66</ele>
        <time>2015-10-20T12:07:54Z</time>
      </trkpt>
      <trkpt lat="44.04039" lon="0.34366">
        <ele>66</ele>
        <time>2015-10-20T12:08:03Z</time>
      </trkpt>
      <trkpt lat="44.04038" lon="0.34353">
        <ele>66</ele>
        <time>2015-10-20T12:08:10Z</time>
      </trkpt>
      <trkpt lat="44.04036" lon="0.34339">
        <ele>66</ele>
        <time>2015-10-20T12:08:20Z</time>
      </trkpt>
      <trkpt lat="44.04035" lon="0.34325">
        <ele>66</ele>
        <time>2015-10-20T12:08:28Z</time>
      </trkpt>
      <trkpt lat="44.04034" lon="0.34312">
        <ele>66</ele>
        <time>2015-10-20T12:08:35Z</time>
      </trkpt>
      <trkpt lat="44.04034" lon="0.34299">
        <ele>66</ele>
        <time>2015-10-20T12:08:44Z</time>
      </trkpt>
      <trkpt lat="44.04032" lon="0.34286">
        <ele>66</ele>
        <time>2015-10-20T12:08:51Z</time>
      </trkpt>
      <trkpt lat="44.04028" lon="0.34273">
        <ele>66</ele>
        <time>2015-10-20T12:09:00Z</time>
      </trkpt>
      <trkpt lat="44.04022" lon="0.34263">
        <ele>66</ele>
        <time>2015-10-20T12:09:08Z</time>
      </trkpt>
      <trkpt lat="44.04014" lon="0.34256">
        <ele>66</ele>
        <time>2015-10-20T12:09:16Z</time>
      </trkpt>
      <trkpt lat="44.04005" lon="0.34252">
        <ele>66</ele>
        <time>2015-10-20T12:09:27Z</time>
      </trkpt>
      <trkpt lat="44.03996" lon="0.34251">
        <ele>66</ele>
        <time>2015-10-20T12:09:35Z</time>
      </trkpt>
      <trkpt lat="44.03986" lon="0.3425">
        <ele>66</ele>
        <time>2015-10-20T12:09:46Z</time>
      </trkpt>
      <trkpt lat="44.03976" lon="0.34249">
        <ele>66</ele>
        <time>2015-10-20T12:09:54Z</time>
      </trkpt>
      <trkpt lat="44.03966" lon="0.34247">
        <ele>66</ele>
        <time>2015-10-20T12:10:01Z</time>
      </trkpt>
      <trkpt lat="44.03956" lon="0.34248">
        <ele>66</ele>
        <time>2015-10-20T12:10:15Z</time>
      </trkpt>
      <trkpt lat="44.03947" lon="0.34245">
        <ele>66</ele>
        <time>2015-10-20T12:10:23Z</time>
      </trkpt>
      <trkpt lat="44.03938" lon="0.34243">
        <ele>66</ele>
        <time>2015-10-20T12:10:33Z</time>
      </trkpt>
      <trkpt lat="44.03928" lon="0.3424">
        <ele>66</ele>
        <time>2015-10-20T12:10:42Z</time>
      </trkpt>
      <trkpt lat="44.03919" lon="0.34236">
        <ele>66</ele>
        <time>2015-10-20T12:10:49Z</time>
      </trkpt>
      <trkpt lat="44.03912" lon="0.34227">
        <ele>70</ele>
        <time>2015-10-20T12:10:58Z</time>
      </trkpt>
      <trkpt lat="44.0391" lon="0.34214">
        <ele>70</ele>
        <time>2015-10-20T12:11:05Z</time>
      </trkpt>
      <trkpt lat="44.0391" lon="0.34201">
        <ele>70</ele>
        <time>2015-10-20T12:11:13Z</time>
      </trkpt>
      <trkpt lat="44.0391" lon="0.34188">
        <ele>70</ele>
        <time>2015-10-20T12:11:22Z</time>
      </trkpt>
      <trkpt lat="44.0391" lon="0.34175">
        <ele>70</ele>
        <time>2015-10-20T12:11:29Z</time>
      </trkpt>
      <trkpt lat="44.03909" lon="0.34161">
        <ele>70</ele>
        <time>2015-10-20T12:11:39Z</time>
      </trkpt>
      <trkpt lat="44.0391" lon="0.34148">
        <ele>70</ele>
        <time>2015-10-20T12:11:48Z</time>
      </trkpt>
      <trkpt lat="44.03912" lon="0.34136">
        <ele>70</ele>
        <time>2015-10-20T12:11:54Z</time>
      </trkpt>
      <trkpt lat="44.03915" lon="0.34124">
        <ele>70</ele>
        <time>2015-10-20T12:12:02Z</time>
      </trkpt>
      <trkpt lat="44.03919" lon="0.34113">
        <ele>70</ele>
        <time>2015-10-20T12:12:09Z</time>
      </trkpt>
      <trkpt lat="44.03923" lon="0.34101">
        <ele>70</ele>
        <time>2015-10-20T12:12:17Z</time>
      </trkpt>
      <trkpt lat="44.03928" lon="0.34089">
        <ele>70</ele>
        <time>2015-10-20T12:12:27Z</time>
      </trkpt>
      <trkpt lat="44.03932" lon="0.34077">
        <ele>70</ele>
        <time>2015-10-20T12:12:35Z</time>
      </trkpt>
      <trkpt lat="44.03937" lon="0.34065">
        <ele>70</ele>
        <time>2015-10-20T12:12:42Z</time>
      </trkpt>
      <trkpt lat="44.03941" lon="0.34053">
        <ele>70</ele>
        <time>2015-10-20T12:12:51Z</time>
      </trkpt>
      <trkpt lat="44.03946" lon="0.34041">
        <ele>70</ele>
        <time>2015-10-20T12:12:58Z</time>
      </trkpt>
      <trkpt lat="44.0395" lon="0.3403">
        <ele>70</ele>
        <time>2015-10-20T12:13:06Z</time>
      </trkpt>
      <trkpt lat="44.03955" lon="0.3402">
        <ele>70</ele>
        <time>2015-10-20T12:13:26Z</time>
      </trkpt>
      <trkpt lat="44.0396" lon="0.34008">
        <ele>70</ele>
        <time>2015-10-20T12:13:36Z</time>
      </trkpt>
      <trkpt lat="44.03965" lon="0.33997">
        <ele>70</ele>
        <time>2015-10-20T12:13:44Z</time>
      </trkpt>
      <trkpt lat="44.03969" lon="0.33985">
        <ele>70</ele>
        <time>2015-10-20T12:13:51Z</time>
      </trkpt>
      <trkpt lat="44.03974" lon="0.33973">
        <ele>70</ele>
        <time>2015-10-20T12:14:00Z</time>
      </trkpt>
      <trkpt lat="44.03979" lon="0.33961">
        <ele>70</ele>
        <time>2015-10-20T12:14:07Z</time>
      </trkpt>
      <trkpt lat="44.03983" lon="0.3395">
        <ele>70</ele>
        <time>2015-10-20T12:14:18Z</time>
      </trkpt>
      <trkpt lat="44.03988" lon="0.33939">
        <ele>70</ele>
        <time>2015-10-20T12:14:27Z</time>
      </trkpt>
      <trkpt lat="44.03992" lon="0.33928">
        <ele>70</ele>
        <time>2015-10-20T12:14:36Z</time>
      </trkpt>
      <trkpt lat="44.03997" lon="0.33915">
        <ele>70</ele>
        <time>2015-10-20T12:14:47Z</time>
      </trkpt>
      <trkpt lat="44.04002" lon="0.33904">
        <ele>70</ele>
        <time>2015-10-20T12:14:55Z</time>
      </trkpt>
      <trkpt lat="44.04007" lon="0.33893">
        <ele>70</ele>
        <time>2015-10-20T12:15:05Z</time>
      </trkpt>
      <trkpt lat="44.0401" lon="0.33881">
        <ele>70</ele>
        <time>2015-10-20T12:15:14Z</time>
      </trkpt>
      <trkpt lat="44.04013" lon="0.33869">
        <ele>72</ele>
        <time>2015-10-20T12:15:24Z</time>
      </trkpt>
      <trkpt lat="44.04018" lon="0.33858">
        <ele>72</ele>
        <time>2015-10-20T12:15:33Z</time>
      </trkpt>
      <trkpt lat="44.04022" lon="0.33846">
        <ele>72</ele>
        <time>2015-10-20T12:15:42Z</time>
      </trkpt>
      <trkpt lat="44.04026" lon="0.33833">
        <ele>72</ele>
        <time>2015-10-20T12:15:53Z</time>
      </trkpt>
      <trkpt lat="44.04029" lon="0.33822">
        <ele>72</ele>
        <time>2015-10-20T12:15:59Z</time>
      </trkpt>
      <trkpt lat="44.04034" lon="0.33809">
        <ele>72</ele>
        <time>2015-10-20T12:16:09Z</time>
      </trkpt>
      <trkpt lat="44.04036" lon="0.33796">
        <ele>72</ele>
        <time>2015-10-20T12:16:18Z</time>
      </trkpt>
      <trkpt lat="44.04042" lon="0.33786">
        <ele>72</ele>
        <time>2015-10-20T12:16:24Z</time>
      </trkpt>
      <trkpt lat="44.04048" lon="0.33775">
        <ele>72</ele>
        <time>2015-10-20T12:16:33Z</time>
      </trkpt>
      <trkpt lat="44.04054" lon="0.33766">
        <ele>72</ele>
        <time>2015-10-20T12:16:40Z</time>
      </trkpt>
      <trkpt lat="44.04058" lon="0.33753">
        <ele>72</ele>
        <time>2015-10-20T12:16:48Z</time>
      </trkpt>
      <trkpt lat="44.0406" lon="0.33741">
        <ele>72</ele>
        <time>2015-10-20T12:16:56Z</time>
      </trkpt>
      <trkpt lat="44.04063" lon="0.33729">
        <ele>72</ele>
        <time>2015-10-20T12:17:03Z</time>
      </trkpt>
      <trkpt lat="44.04063" lon="0.33715">
        <ele>72</ele>
        <time>2015-10-20T12:17:11Z</time>
      </trkpt>
      <trkpt lat="44.04066" lon="0.33703">
        <ele>72</ele>
        <time>2015-10-20T12:17:19Z</time>
      </trkpt>
      <trkpt lat="44.04068" lon="0.3369">
        <ele>72</ele>
        <time>2015-10-20T12:17:26Z</time>
      </trkpt>
      <trkpt lat="44.04066" lon="0.33678">
        <ele>72</ele>
        <time>2015-10-20T12:17:35Z</time>
      </trkpt>
      <trkpt lat="44.04066" lon="0.33664">
        <ele>72</ele>
        <time>2015-10-20T12:17:47Z</time>
      </trkpt>
      <trkpt lat="44.04066" lon="0.33651">
        <ele>72</ele>
        <time>2015-10-20T12:17:54Z</time>
      </trkpt>
      <trkpt lat="44.04067" lon="0.33637">
        <ele>72</ele>
        <time>2015-10-20T12:18:02Z</time>
      </trkpt>
      <trkpt lat="44.04067" lon="0.33623">
        <ele>72</ele>
        <time>2015-10-20T12:18:09Z</time>
      </trkpt>
      <trkpt lat="44.04067" lon="0.3361">
        <ele>72</ele>
        <time>2015-10-20T12:18:14Z</time>
      </trkpt>
      <trkpt lat="44.04066" lon="0.33597">
        <ele>72</ele>
        <time>2015-10-20T12:18:20Z</time>
      </trkpt>
      <trkpt lat="44.04066" lon="0.33583">
        <ele>72</ele>
        <time>2015-10-20T12:18:28Z</time>
      </trkpt>
      <trkpt lat="44.04065" lon="0.33569">
        <ele>67</ele>
        <time>2015-10-20T12:18:34Z</time>
      </trkpt>
      <trkpt lat="44.04064" lon="0.33557">
        <ele>67</ele>
        <time>2015-10-20T12:18:41Z</time>
      </trkpt>
      <trkpt lat="44.04063" lon="0.33544">
        <ele>67</ele>
        <time>2015-10-20T12:18:49Z</time>
      </trkpt>
      <trkpt lat="44.04062" lon="0.33531">
        <ele>67</ele>
        <time>2015-10-20T12:18:56Z</time>
      </trkpt>
      <trkpt lat="44.0406" lon="0.33517">
        <ele>67</ele>
        <time>2015-10-20T12:19:05Z</time>
      </trkpt>
      <trkpt lat="44.04058" lon="0.33504">
        <ele>67</ele>
        <time>2015-10-20T12:19:14Z</time>
      </trkpt>
      <trkpt lat="44.04055" lon="0.33492">
        <ele>67</ele>
        <time>2015-10-20T12:19:21Z</time>
      </trkpt>
      <trkpt lat="44.04054" lon="0.33478">
        <ele>67</ele>
        <time>2015-10-20T12:19:30Z</time>
      </trkpt>
      <trkpt lat="44.04052" lon="0.33465">
        <ele>67</ele>
        <time>2015-10-20T12:19:38Z</time>
      </trkpt>
      <trkpt lat="44.04051" lon="0.33453">
        <ele>67</ele>
        <time>2015-10-20T12:19:45Z</time>
      </trkpt>
      <trkpt lat="44.0405" lon="0.33439">
        <ele>63</ele>
        <time>2015-10-20T12:19:55Z</time>
      </trkpt>
      <trkpt lat="44.04051" lon="0.33425">
        <ele>63</ele>
        <time>2015-10-20T12:20:03Z</time>
      </trkpt>
      <trkpt lat="44.04053" lon="0.33411">
        <ele>63</ele>
        <time>2015-10-20T12:20:11Z</time>
      </trkpt>
      <trkpt lat="44.04055" lon="0.33398">
        <ele>63</ele>
        <time>2015-10-20T12:20:20Z</time>
      </trkpt>
      <trkpt lat="44.04057" lon="0.33386">
        <ele>63</ele>
        <time>2015-10-20T12:20:27Z</time>
      </trkpt>
      <trkpt lat="44.0406" lon="0.33373">
        <ele>63</ele>
        <time>2015-10-20T12:20:35Z</time>
      </trkpt>
      <trkpt lat="44.04062" lon="0.3336">
        <ele>63</ele>
        <time>2015-10-20T12:20:44Z</time>
      </trkpt>
      <trkpt lat="44.04062" lon="0.33347">
        <ele>63</ele>
        <time>2015-10-20T12:20:51Z</time>
      </trkpt>
      <trkpt lat="44.04062" lon="0.33334">
        <ele>63</ele>
        <time>2015-10-20T12:21:00Z</time>
      </trkpt>
      <trkpt lat="44.04061" lon="0.33321">
        <ele>63</ele>
        <time>2015-10-20T12:21:08Z</time>
      </trkpt>
      <trkpt lat="44.04059" lon="0.33308">
        <ele>63</ele>
        <time>2015-10-20T12:21:15Z</time>
      </trkpt>
      <trkpt lat="44.04057" lon="0.33295">
        <ele>59</ele>
        <time>2015-10-20T12:21:24Z</time>
      </trkpt>
      <trkpt lat="44.04053" lon="0.33283">
        <ele>59</ele>
        <time>2015-10-20T12:21:32Z</time>
      </trkpt>
      <trkpt lat="44.04049" lon="0.33271">
        <ele>59</ele>
        <time>2015-10-20T12:21:40Z</time>
      </trkpt>
      <trkpt lat="44.04044" lon="0.33259">
        <ele>59</ele>
        <time>2015-10-20T12:21:51Z</time>
      </trkpt>
      <trkpt lat="44.04039" lon="0.33247">
        <ele>59</ele>
        <time>2015-10-20T12:21:58Z</time>
      </trkpt>
      <trkpt lat="44.04034" lon="0.33236">
        <ele>59</ele>
        <time>2015-10-20T12:22:07Z</time>
      </trkpt>
      <trkpt lat="44.0403" lon="0.33225">
        <ele>59</ele>
        <time>2015-10-20T12:22:15Z</time>
      </trkpt>
      <trkpt lat="44.04025" lon="0.33214">
        <ele>55</ele>
        <time>2015-10-20T12:22:22Z</time>
      </trkpt>
      <trkpt lat="44.0402" lon="0.33203">
        <ele>55</ele>
        <time>2015-10-20T12:22:31Z</time>
      </trkpt>
      <trkpt lat="44.04015" lon="0.33191">
        <ele>55</ele>
        <time>2015-10-20T12:22:40Z</time>
      </trkpt>
      <trkpt lat="44.0401" lon="0.3318">
        <ele>55</ele>
        <time>2015-10-20T12:22:47Z</time>
      </trkpt>
      <trkpt lat="44.04005" lon="0.33169">
        <ele>55</ele>
        <time>2015-10-20T12:22:56Z</time>
      </trkpt>
      <trkpt lat="44.04" lon="0.33158">
        <ele>51</ele>
        <time>2015-10-20T12:23:03Z</time>
      </trkpt>
      <trkpt lat="44.03996" lon="0.33146">
        <ele>51</ele>
        <time>2015-10-20T12:23:11Z</time>
      </trkpt>
      <trkpt lat="44.03994" lon="0.33133">
        <ele>51</ele>
        <time>2015-10-20T12:23:21Z</time>
      </trkpt>
      <trkpt lat="44.03993" lon="0.3312">
        <ele>51</ele>
        <time>2015-10-20T12:23:29Z</time>
      </trkpt>
      <trkpt lat="44.03992" lon="0.33107">
        <ele>51</ele>
        <time>2015-10-20T12:23:39Z</time>
      </trkpt>
      <trkpt lat="44.03992" lon="0.33094">
        <ele>51</ele>
        <time>2015-10-20T12:23:48Z</time>
      </trkpt>
      <trkpt lat="44.03992" lon="0.33081">
        <ele>47</ele>
        <time>2015-10-20T12:23:56Z</time>
      </trkpt>
      <trkpt lat="44.03986" lon="0.33071">
        <ele>47</ele>
        <time>2015-10-20T12:24:10Z</time>
      </trkpt>
      <trkpt lat="44.03977" lon="0.33065">
        <ele>47</ele>
        <time>2015-10-20T12:24:19Z</time>
      </trkpt>
      <trkpt lat="44.03968" lon="0.3306">
        <ele>47</ele>
        <time>2015-10-20T12:24:28Z</time>
      </trkpt>
      <trkpt lat="44.0396" lon="0.33054">
        <ele>47</ele>
        <time>2015-10-20T12:24:38Z</time>
      </trkpt>
      <trkpt lat="44.03951" lon="0.33051">
        <ele>47</ele>
        <time>2015-10-20T12:24:47Z</time>
      </trkpt>
      <trkpt lat="44.03943" lon="0.33045">
        <ele>43</ele>
        <time>2015-10-20T12:24:55Z</time>
      </trkpt>
      <trkpt lat="44.03935" lon="0.33038">
        <ele>43</ele>
        <time>2015-10-20T12:25:08Z</time>
      </trkpt>
      <trkpt lat="44.03927" lon="0.33031">
        <ele>43</ele>
        <time>2015-10-20T12:25:17Z</time>
      </trkpt>
      <trkpt lat="44.03922" lon="0.33021">
        <ele>39</ele>
        <time>2015-10-20T12:25:31Z</time>
      </trkpt>
      <trkpt lat="44.03919" lon="0.33008">
        <ele>39</ele>
        <time>2015-10-20T12:25:42Z</time>
      </trkpt>
      <trkpt lat="44.03917" lon="0.32995">
        <ele>39</ele>
        <time>2015-10-20T12:25:53Z</time>
      </trkpt>
      <trkpt lat="44.03917" lon="0.32982">
        <ele>39</ele>
        <time>2015-10-20T12:26:04Z</time>
      </trkpt>
      <trkpt lat="44.03915" lon="0.32969">
        <ele>34</ele>
        <time>2015-10-20T12:26:15Z</time>
      </trkpt>
      <trkpt lat="44.03915" lon="0.32955">
        <ele>34</ele>
        <time>2015-10-20T12:26:25Z</time>
      </trkpt>
      <trkpt lat="44.03916" lon="0.32942">
        <ele>34</ele>
        <time>2015-10-20T12:26:33Z</time>
      </trkpt>
      <trkpt lat="44.03916" lon="0.32929">
        <ele>34</ele>
        <time>2015-10-20T12:26:44Z</time>
      </trkpt>
      <trkpt lat="44.03918" lon="0.32915">
        <ele>34</ele>
        <time>2015-10-20T12:26:51Z</time>
      </trkpt>
      <trkpt lat="44.03919" lon="0.32901">
        <ele>34</ele>
        <time>2015-10-20T12:27:00Z</time>
      </trkpt>
      <trkpt lat="44.0392" lon="0.32888">
        <ele>34</ele>
        <time>2015-10-20T12:27:10Z</time>
      </trkpt>
      <trkpt lat="44.03918" lon="0.32875">
        <ele>34</ele>
        <time>2015-10-20T12:27:19Z</time>
      </trkpt>
      <trkpt lat="44.03917" lon="0.32861">
        <ele>30</ele>
        <time>2015-10-20T12:27:30Z</time>
      </trkpt>
      <trkpt lat="44.03916" lon="0.32848">
        <ele>30</ele>
        <time>2015-10-20T12:27:39Z</time>
      </trkpt>
      <trkpt lat="44.03917" lon="0.32835">
        <ele>26</ele>
        <time>2015-10-20T12:27:49Z</time>
      </trkpt>
      <trkpt lat="44.03917" lon="0.32822">
        <ele>26</ele>
        <time>2015-10-20T12:27:59Z</time>
      </trkpt>
      <trkpt lat="44.03917" lon="0.32809">
        <ele>26</ele>
        <time>2015-10-20T12:28:10Z</time>
      </trkpt>
      <trkpt lat="44.03916" lon="0.32797">
        <ele>26</ele>
        <time>2015-10-20T12:28:23Z</time>
      </trkpt>
      <trkpt lat="44.03915" lon="0.32784">
        <ele>26</ele>
        <time>2015-10-20T12:28:39Z</time>
      </trkpt>
      <trkpt lat="44.03916" lon="0.32771">
        <ele>21</ele>
        <time>2015-10-20T12:28:49Z</time>
      </trkpt>
      <trkpt lat="44.03918" lon="0.32758">
        <ele>21</ele>
        <time>2015-10-20T12:29:05Z</time>
      </trkpt>
      <trkpt lat="44.03922" lon="0.32746">
        <ele>21</ele>
        <time>2015-10-20T12:29:34Z</time>
      </trkpt>
      <trkpt lat="44.03923" lon="0.32733">
        <ele>17</ele>
        <time>2015-10-20T12:29:49Z</time>
      </trkpt>
      <trkpt lat="44.03923" lon="0.3272">
        <ele>13</ele>
        <time>2015-10-20T12:30:02Z</time>
      </trkpt>
      <trkpt lat="44.03923" lon="0.32707">
        <ele>13</ele>
        <time>2015-10-20T12:30:22Z</time>
      </trkpt>
      <trkpt lat="44.03917" lon="0.32697">
        <ele>13</ele>
        <time>2015-10-20T12:30:36Z</time>
      </trkpt>
      <trkpt lat="44.03914" lon="0.32684">
        <ele>9</ele>
        <time>2015-10-20T12:30:51Z</time>
      </trkpt>
      <trkpt lat="44.03912" lon="0.32671">
        <ele>9</ele>
        <time>2015-10-20T12:31:00Z</time>
      </trkpt>
      <trkpt lat="44.03907" lon="0.32659">
        <ele>9</ele>
        <time>2015-10-20T12:31:12Z</time>
      </trkpt>
      <trkpt lat="44.03909" lon="0.32645">
        <ele>3</ele>
        <time>2015-10-20T12:31:23Z</time>
      </trkpt>
      <trkpt lat="44.03913" lon="0.32634">
        <ele>3</ele>
        <time>2015-10-20T12:31:37Z</time>
      </trkpt>
      <trkpt lat="44.0392" lon="0.32625">
        <ele>3</ele>
        <time>2015-10-20T12:31:46Z</time>
      </trkpt>
      <trkpt lat="44.03928" lon="0.32616">
        <ele>3</ele>
        <time>2015-10-20T12:31:56Z</time>
      </trkpt>
      <trkpt lat="44.03936" lon="0.3261">
        <ele>3</ele>
        <time>2015-10-20T12:32:04Z</time>
      </trkpt>
      <trkpt lat="44.03946" lon="0.32607">
        <ele>3</ele>
        <time>2015-10-20T12:32:12Z</time>
      </trkpt>
      <trkpt lat="44.03955" lon="0.32605">
        <ele>3</ele>
        <time>2015-10-20T12:32:21Z</time>
      </trkpt>
      <trkpt lat="44.03965" lon="0.32605">
        <ele>3</ele>
        <time>2015-10-20T12:32:31Z</time>
      </trkpt>
      <trkpt lat="44.03974" lon="0.32606">
        <ele>3</ele>
        <time>2015-10-20T12:32:43Z</time>
      </trkpt>
      <trkpt lat="44.03983" lon="0.32606">
        <ele>3</ele>
        <time>2015-10-20T12:32:53Z</time>
      </trkpt>
      <trkpt lat="44.03993" lon="0.32603">
        <ele>3</ele>
        <time>2015-10-20T12:33:03Z</time>
      </trkpt>
      <trkpt lat="44.04002" lon="0.32598">
        <ele>3</ele>
        <time>2015-10-20T12:33:12Z</time>
      </trkpt>
      <trkpt lat="44.0401" lon="0.32593">
        <ele>3</ele>
        <time>2015-10-20T12:33:21Z</time>
      </trkpt>
      <trkpt lat="44.04019" lon="0.32587">
        <ele>3</ele>
        <time>2015-10-20T12:33:30Z</time>
      </trkpt>
      <trkpt lat="44.04029" lon="0.32582">
        <ele>3</ele>
        <time>2015-10-20T12:33:37Z</time>
      </trkpt>
      <trkpt lat="44.04038" lon="0.32578">
        <ele>3</ele>
        <time>2015-10-20T12:33:44Z</time>
      </trkpt>
      <trkpt lat="44.04047" lon="0.32574">
        <ele>3</ele>
        <time>2015-10-20T12:33:52Z</time>
      </trkpt>
      <trkpt lat="44.04056" lon="0.32571">
        <ele>3</ele>
        <time>2015-10-20T12:33:58Z</time>
      </trkpt>
      <trkpt lat="44.04065" lon="0.32568">
        <ele>3</ele>
        <time>2015-10-20T12:34:07Z</time>
      </trkpt>
      <trkpt lat="44.04073" lon="0.32563">
        <ele>7</ele>
        <time>2015-10-20T12:34:17Z</time>
      </trkpt>
      <trkpt lat="44.04082" lon="0.32558">
        <ele>7</ele>
        <time>2015-10-20T12:34:25Z</time>
      </trkpt>
      <trkpt lat="44.04091" lon="0.32553">
        <ele>7</ele>
        <time>2015-10-20T12:34:35Z</time>
      </trkpt>
      <trkpt lat="44.041" lon="0.32546">
        <ele>7</ele>
        <time>2015-10-20T12:34:43Z</time>
      </trkpt>
      <trkpt lat="44.04106" lon="0.32538">
        <ele>7</ele>
        <time>2015-10-20T12:34:54Z</time>
      </trkpt>
      <trkpt lat="44.04113" lon="0.32528">
        <ele>7</ele>
        <time>2015-10-20T12:35:03Z</time>
      </trkpt>
      <trkpt lat="44.04122" lon="0.3252">
        <ele>7</ele>
        <time>2015-10-20T12:35:12Z</time>
      </trkpt>
      <trkpt lat="44.04131" lon="0.32515">
        <ele>7</ele>
        <time>2015-10-20T12:35:21Z</time>
      </trkpt>
      <trkpt lat="44.04139" lon="0.32509">
        <ele>7</ele>
        <time>2015-10-20T12:35:27Z</time>
      </trkpt>
      <trkpt lat="44.04146" lon="0.32501">
        <ele>7</ele>
        <time>2015-10-20T12:35:36Z</time>
      </trkpt>
      <trkpt lat="44.04154" lon="0.32494">
        <ele>7</ele>
        <time>2015-10-20T12:35:45Z</time>
      </trkpt>
      <trkpt lat="44.04162" lon="0.32487">
        <ele>7</ele>
        <time>2015-10-20T12:35:53Z</time>
      </trkpt>
      <trkpt lat="44.0417" lon="0.32478">
        <ele>7</ele>
        <time>2015-10-20T12:36:03Z</time>
      </trkpt>
      <trkpt lat="44.04178" lon="0.32471">
        <ele>7</ele>
        <time>2015-10-20T12:36:11Z</time>
      </trkpt>
      <trkpt lat="44.04185" lon="0.32462">
        <ele>7</ele>
        <time>2015-10-20T12:36:20Z</time>
      </trkpt>
      <trkpt lat="44.04192" lon="0.32455">
        <ele>7</ele>
        <time>2015-10-20T12:36:28Z</time>
      </trkpt>
      <trkpt lat="44.042" lon="0.32445">
        <ele>7</ele>
        <time>2015-10-20T12:36:35Z</time>
      </trkpt>
      <trkpt lat="44.04206" lon="0.32436">
        <ele>7</ele>
        <time>2015-10-20T12:36:42Z</time>
      </trkpt>
      <trkpt lat="44.04214" lon="0.32427">
        <ele>7</ele>
        <time>2015-10-20T12:36:52Z</time>
      </trkpt>
      <trkpt lat="44.04221" lon="0.32417">
        <ele>7</ele>
        <time>2015-10-20T12:37:00Z</time>
      </trkpt>
      <trkpt lat="44.04228" lon="0.32408">
        <ele>7</ele>
        <time>2015-10-20T12:37:09Z</time>
      </trkpt>
      <trkpt lat="44.04235" lon="0.32399">
        <ele>7</ele>
        <time>2015-10-20T12:37:17Z</time>
      </trkpt>
      <trkpt lat="44.04243" lon="0.3239">
        <ele>7</ele>
        <time>2015-10-20T12:37:25Z</time>
      </trkpt>
      <trkpt lat="44.04249" lon="0.32381">
        <ele>7</ele>
        <time>2015-10-20T12:37:35Z</time>
      </trkpt>
      <trkpt lat="44.04256" lon="0.32372">
        <ele>7</ele>
        <time>2015-10-20T12:37:42Z</time>
      </trkpt>
      <trkpt lat="44.04262" lon="0.32361">
        <ele>7</ele>
        <time>2015-10-20T12:37:51Z</time>
      </trkpt>
      <trkpt lat="44.0427" lon="0.32353">
        <ele>7</ele>
        <time>2015-10-20T12:38:00Z</time>
      </trkpt>
      <trkpt lat="44.04277" lon="0.32343">
        <ele>7</ele>
        <time>2015-10-20T12:38:07Z</time>
      </trkpt>
      <trkpt lat="44.04284" lon="0.32334">
        <ele>5</ele>
        <time>2015-10-20T12:38:17Z</time>
      </trkpt>
      <trkpt lat="44.04291" lon="0.32325">
        <ele>5</ele>
        <time>2015-10-20T12:38:26Z</time>
      </trkpt>
      <trkpt lat="44.04298" lon="0.32316">
        <ele>5</ele>
        <time>2015-10-20T12:38:34Z</time>
      </trkpt>
      <trkpt lat="44.04305" lon="0.32307">
        <ele>5</ele>
        <time>2015-10-20T12:38:43Z</time>
      </trkpt>
      <trkpt lat="44.04311" lon="0.32297">
        <ele>5</ele>
        <time>2015-10-20T12:38:50Z</time>
      </trkpt>
      <trkpt lat="44.04317" lon="0.32287">
        <ele>5</ele>
        <time>2015-10-20T12:38:58Z</time>
      </trkpt>
      <trkpt lat="44.04323" lon="0.32278">
        <ele>5</ele>
        <time>2015-10-20T12:39:06Z</time>
      </trkpt>
      <trkpt lat="44.0433" lon="0.32267">
        <ele>5</ele>
        <time>2015-10-20T12:39:12Z</time>
      </trkpt>
      <trkpt lat="44.04335" lon="0.32255">
        <ele>9</ele>
        <time>2015-10-20T12:39:20Z</time>
      </trkpt>
      <trkpt lat="44.04341" lon="0.32245">
        <ele>9</ele>
        <time>2015-10-20T12:39:30Z</time>
      </trkpt>
      <trkpt lat="44.04347" lon="0.32234">
        <ele>9</ele>
        <time>2015-10-20T12:39:38Z</time>
      </trkpt>
      <trkpt lat="44.04354" lon="0.32225">
        <ele>9</ele>
        <time>2015-10-20T12:39:48Z</time>
      </trkpt>
      <trkpt lat="44.04359" lon="0.32213">
        <ele>9</ele>
        <time>2015-10-20T12:39:56Z</time>
      </trkpt>
      <trkpt lat="44.04364" lon="0.32201">
        <ele>9</ele>
        <time>2015-10-20T12:40:04Z</time>
      </trkpt>
      <trkpt lat="44.0437" lon="0.32189">
        <ele>9</ele>
        <time>2015-10-20T12:40:13Z</time>
      </trkpt>
      <trkpt lat="44.04377" lon="0.3218">
        <ele>9</ele>
        <time>2015-10-20T12:40:19Z</time>
      </trkpt>
      <trkpt lat="44.04382" lon="0.32169">
        <ele>9</ele>
        <time>2015-10-20T12:40:27Z</time>
      </trkpt>
      <trkpt lat="44.04386" lon="0.32157">
        <ele>9</ele>
        <time>2015-10-20T12:40:36Z</time>
      </trkpt>
      <trkpt lat="44.04391" lon="0.32146">
        <ele>9</ele>
        <time>2015-10-20T12:40:44Z</time>
      </trkpt>
      <trkpt lat="44.04395" lon="0.32133">
        <ele>9</ele>
        <time>2015-10-20T12:40:54Z</time>
      </trkpt>
      <trkpt lat="44.04399" lon="0.32122">
        <ele>9</ele>
        <time>2015-10-20T12:41:00Z</time>
      </trkpt>
      <trkpt lat="44.04403" lon="0.3211">
        <ele>9</ele>
        <time>2015-10-20T12:41:06Z</time>
      </trkpt>
      <trkpt lat="44.04408" lon="0.32099">
        <ele>9</ele>
        <time>2015-10-20T12:41:13Z</time>
      </trkpt>
      <trkpt lat="44.04413" lon="0.32088">
        <ele>9</ele>
        <time>2015-10-20T12:41:21Z</time>
      </trkpt>
      <trkpt lat="44.04417" lon="0.32076">
        <ele>9</ele>
        <time>2015-10-20T12:41:27Z</time>
      </trkpt>
      <trkpt lat="44.04422" lon="0.32065">
        <ele>13</ele>
        <time>2015-10-20T12:41:33Z</time>
      </trkpt>
      <trkpt lat="44.04429" lon="0.32055">
        <ele>13</ele>
        <time>2015-10-20T12:41:42Z</time>
      </trkpt>
      <trkpt lat="44.04435" lon="0.32044">
        <ele>13</ele>
        <time>2015-10-20T12:41:50Z</time>
      </trkpt>
      <trkpt lat="44.0444" lon="0.32032">
        <ele>13</ele>
        <time>2015-10-20T12:41:57Z</time>
      </trkpt>
      <trkpt lat="44.04446" lon="0.32023">
        <ele>13</ele>
        <time>2015-10-20T12:42:04Z</time>
      </trkpt>
      <trkpt lat="44.04452" lon="0.32012">
        <ele>18</ele>
        <time>2015-10-20T12:42:11Z</time>
      </trkpt>
      <trkpt lat="44.0446" lon="0.32003">
        <ele>18</ele>
        <time>2015-10-20T12:42:18Z</time>
      </trkpt>
      <trkpt lat="44.04469" lon="0.31998">
        <ele>18</ele>
        <time>2015-10-20T12:42:27Z</time>
      </trkpt>
      <trkpt lat="44.04478" lon="0.31993">
        <ele>18</ele>
        <time>2015-10-20T12:42:34Z</time>
      </trkpt>
      <trkpt lat="44.04488" lon="0.31992">
        <ele>18</ele>
        <time>2015-10-20T12:42:41Z</time>
      </trkpt>
      <trkpt lat="44.04497" lon="0.31991">
        <ele>18</ele>
        <time>2015-10-20T12:42:49Z</time>
      </trkpt>
      <trkpt lat="44.04507" lon="0.31991">
        <ele>18</ele>
        <time>2015-10-20T12:42:57Z</time>
      </trkpt>
      <trkpt lat="44.04516" lon="0.31993">
        <ele>18</ele>
        <time>2015-10-20T12:43:03Z</time>
      </trkpt>
      <trkpt lat="44.04525" lon="0.31996">
        <ele>22</ele>
        <time>2015-10-20T12:43:11Z</time>
      </trkpt>
      <trkpt lat="44.04534" lon="0.32001">
        <ele>22</ele>
        <time>2015-10-20T12:43:18Z</time>
      </trkpt>
      <trkpt lat="44.04541" lon="0.32009">
        <ele>22</ele>
        <time>2015-10-20T12:43:25Z</time>
      </trkpt>
      <trkpt lat="44.04548" lon="0.3202">
        <ele>22</ele>
        <time>2015-10-20T12:43:33Z</time>
      </trkpt>
      <trkpt lat="44.04554" lon="0.32029">
        <ele>22</ele>
        <time>2015-10-20T12:43:40Z</time>
      </trkpt>
      <trkpt lat="44.04563" lon="0.32033">
        <ele>22</ele>
        <time>2015-10-20T12:43:51Z</time>
      </trkpt>
      <trkpt lat="44.04572" lon="0.3203">
        <ele>22</ele>
        <time>2015-10-20T12:44:04Z</time>
      </trkpt>
      <trkpt lat="44.04579" lon="0.32021">
        <ele>22</ele>
        <time>2015-10-20T12:44:18Z</time>
      </trkpt>
      <trkpt lat="44.04588" lon="0.32017">
        <ele>22</ele>
        <time>2015-10-20T12:44:31Z</time>
      </trkpt>
      <trkpt lat="44.04597" lon="0.32012">
        <ele>18</ele>
        <time>2015-10-20T12:44:51Z</time>
      </trkpt>
      <trkpt lat="44.04607" lon="0.32011">
        <ele>18</ele>
        <time>2015-10-20T12:45:02Z</time>
      </trkpt>
      <trkpt lat="44.04617" lon="0.32014">
        <ele>18</ele>
        <time>2015-10-20T12:45:11Z</time>
      </trkpt>
      <trkpt lat="44.04626" lon="0.32016">
        <ele>18</ele>
        <time>2015-10-20T12:45:19Z</time>
      </trkpt>
      <trkpt lat="44.04636" lon="0.32019">
        <ele>18</ele>
        <time>2015-10-20T12:45:28Z</time>
      </trkpt>
      <trkpt lat="44.04645" lon="0.32021">
        <ele>18</ele>
        <time>2015-10-20T12:45:36Z</time>
      </trkpt>
      <trkpt lat="44.04655" lon="0.32022">
        <ele>14</ele>
        <time>2015-10-20T12:45:44Z</time>
      </trkpt>
      <trkpt lat="44.04664" lon="0.3202">
        <ele>14</ele>
        <time>2015-10-20T12:45:54Z</time>
      </trkpt>
      <trkpt lat="44.04673" lon="0.32019">
        <ele>14</ele>
        <time>2015-10-20T12:46:02Z</time>
      </trkpt>
      <trkpt lat="44.04683" lon="0.32018">
        <ele>14</ele>
        <time>2015-10-20T12:46:12Z</time>
      </trkpt>
      <trkpt lat="44.04693" lon="0.32016">
        <ele>10</ele>
        <time>2015-10-20T12:46:20Z</time>
      </trkpt>
      <trkpt lat="44.04702" lon="0.32014">
        <ele>10</ele>
        <time>2015-10-20T12:46:29Z</time>
      </trkpt>
      <trkpt lat="44.04712" lon="0.32014">
        <ele>10</ele>
        <time>2015-10-20T12:46:39Z</time>
      </trkpt>
      <trkpt lat="44.04722" lon="0.32013">
        <ele>10</ele>
        <time>2015-10-20T12:46:47Z</time>
      </trkpt>
      <trkpt lat="44.04731" lon="0.3201">
        <ele>10</ele>
        <time>2015-10-20T12:46:56Z</time>
      </trkpt>
      <trkpt lat="44.04741" lon="0.32009">
        <ele>10</ele>
        <time>2015-10-20T12:47:04Z</time>
      </trkpt>
      <trkpt lat="44.0475" lon="0.32011">
        <ele>5</ele>
        <time>2015-10-20T12:47:15Z</time>
      </trkpt>
      <trkpt lat="44.04759" lon="0.32015">
        <ele>5</ele>
        <time>2015-10-20T12:47:25Z</time>
      </trkpt>
      <trkpt lat="44.04768" lon="0.3202">
        <ele>5</ele>
        <time>2015-10-20T12:47:32Z</time>
      </trkpt>
      <trkpt lat="44.04777" lon="0.32023">
        <ele>5</ele>
        <time>2015-10-20T12:47:40Z</time>
      </trkpt>
      <trkpt lat="44.04787" lon="0.32024">
        <ele>5</ele>
        <time>2015-10-20T12:47:48Z</time>
      </trkpt>
      <trkpt lat="44.04796" lon="0.32029">
        <ele>5</ele>
        <time>2015-10-20T12:47:57Z</time>
      </trkpt>
      <trkpt lat="44.04805" lon="0.32033">
        <ele>5</ele>
        <time>2015-10-20T12:48:06Z</time>
      </trkpt>
      <trkpt lat="44.04815" lon="0.32037">
        <ele>5</ele>
        <time>2015-10-20T12:48:13Z</time>
      </trkpt>
      <trkpt lat="44.04824" lon="0.3204">
        <ele>5</ele>
        <time>2015-10-20T12:48:23Z</time>
      </trkpt>
      <trkpt lat="44.04829" lon="0.32051">
        <ele>5</ele>
        <time>2015-10-20T12:48:34Z</time>
      </trkpt>
      <trkpt lat="44.04837" lon="0.32058">
        <ele>5</ele>
        <time>2015-10-20T12:48:44Z</time>
      </trkpt>
      <trkpt lat="44.04844" lon="0.32067">
        <ele>10</ele>
        <time>2015-10-20T12:48:55Z</time>
      </trkpt>
      <trkpt lat="44.04852" lon="0.32073">
        <ele>10</ele>
        <time>2015-10-20T12:49:05Z</time>
      </trkpt>
      <trkpt lat="44.0486" lon="0.32081">
        <ele>10</ele>
        <time>2015-10-20T12:49:17Z</time>
      </trkpt>
      <trkpt lat="44.04868" lon="0.3209">
        <ele>10</ele>
        <time>2015-10-20T12:49:26Z</time>
      </trkpt>
      <trkpt lat="44.04875" lon="0.32096">
        <ele>10</ele>
        <time>2015-10-20T12:49:38Z</time>
      </trkpt>
      <trkpt lat="44.0488" lon="0.32108">
        <ele>10</ele>
        <time>2015-10-20T12:49:58Z</time>
      </trkpt>
      <trkpt lat="44.04885" lon="0.32118">
        <ele>10</ele>
        <time>2015-10-20T12:50:54Z</time>
      </trkpt>
      <trkpt lat="44.04893" lon="0.32123">
        <ele>10</ele>
        <time>2015-10-20T12:51:14Z</time>
      </trkpt>
      <trkpt lat="44.04903" lon="0.32125">
        <ele>10</ele>
        <time>2015-10-20T12:51:27Z</time>
      </trkpt>
      <trkpt lat="44.04912" lon="0.32128">
        <ele>10</ele>
        <time>2015-10-20T12:51:36Z</time>
      </trkpt>
      <trkpt lat="44.04921" lon="0.3213">
        <ele>10</ele>
        <time>2015-10-20T12:51:45Z</time>
      </trkpt>
      <trkpt lat="44.04931" lon="0.32133">
        <ele>10</ele>
        <time>2015-10-20T12:51:56Z</time>
      </trkpt>
      <trkpt lat="44.04939" lon="0.32138">
        <ele>10</ele>
        <time>2015-10-20T12:52:05Z</time>
      </trkpt>
      <trkpt lat="44.04948" lon="0.32142">
        <ele>10</ele>
        <time>2015-10-20T12:52:16Z</time>
      </trkpt>
      <trkpt lat="44.04957" lon="0.32147">
        <ele>10</ele>
        <time>2015-10-20T12:52:23Z</time>
      </trkpt>
      <trkpt lat="44.04966" lon="0.32151">
        <ele>10</ele>
        <time>2015-10-20T12:52:34Z</time>
      </trkpt>
      <trkpt lat="44.04975" lon="0.32154">
        <ele>10</ele>
        <time>2015-10-20T12:52:43Z</time>
      </trkpt>
      <trkpt lat="44.04983" lon="0.3216">
        <ele>10</ele>
        <time>2015-10-20T12:52:50Z</time>
      </trkpt>
      <trkpt lat="44.04992" lon="0.32165">
        <ele>10</ele>
        <time>2015-10-20T12:53:00Z</time>
      </trkpt>
      <trkpt lat="44.05" lon="0.32168">
        <ele>10</ele>
        <time>2015-10-20T12:53:08Z</time>
      </trkpt>
      <trkpt lat="44.05009" lon="0.32171">
        <ele>10</ele>
        <time>2015-10-20T12:53:20Z</time>
      </trkpt>
      <trkpt lat="44.05019" lon="0.32173">
        <ele>10</ele>
        <time>2015-10-20T12:53:28Z</time>
      </trkpt>
      <trkpt lat="44.05028" lon="0.3217">
        <ele>10</ele>
        <time>2015-10-20T12:53:42Z</time>
      </trkpt>
      <trkpt lat="44.05037" lon="0.32168">
        <ele>10</ele>
        <time>2015-10-20T12:53:52Z</time>
      </trkpt>
      <trkpt lat="44.05047" lon="0.32168">
        <ele>7</ele>
        <time>2015-10-20T12:54:00Z</time>
      </trkpt>
      <trkpt lat="44.05057" lon="0.32168">
        <ele>7</ele>
        <time>2015-10-20T12:54:09Z</time>
      </trkpt>
      <trkpt lat="44.05067" lon="0.32166">
        <ele>7</ele>
        <time>2015-10-20T12:54:17Z</time>
      </trkpt>
      <trkpt lat="44.05076" lon="0.32162">
        <ele>7</ele>
        <time>2015-10-20T12:54:27Z</time>
      </trkpt>
      <trkpt lat="44.05085" lon="0.32158">
        <ele>7</ele>
        <time>2015-10-20T12:54:36Z</time>
      </trkpt>
      <trkpt lat="44.05094" lon="0.32152">
        <ele>7</ele>
        <time>2015-10-20T12:54:44Z</time>
      </trkpt>
      <trkpt lat="44.05103" lon="0.32149">
        <ele>7</ele>
        <time>2015-10-20T12:54:55Z</time>
      </trkpt>
      <trkpt lat="44.05113" lon="0.32146">
        <ele>7</ele>
        <time>2015-10-20T12:55:03Z</time>
      </trkpt>
      <trkpt lat="44.05122" lon="0.3214">
        <ele>7</ele>
        <time>2015-10-20T12:55:13Z</time>
      </trkpt>
      <trkpt lat="44.05131" lon="0.32134">
        <ele>7</ele>
        <time>2015-10-20T12:55:21Z</time>
      </trkpt>
      <trkpt lat="44.0514" lon="0.3213">
        <ele>7</ele>
        <time>2015-10-20T12:55:29Z</time>
      </trkpt>
      <trkpt lat="44.05149" lon="0.32124">
        <ele>7</ele>
        <time>2015-10-20T12:55:39Z</time>
      </trkpt>
      <trkpt lat="44.05156" lon="0.32116">
        <ele>7</ele>
        <time>2015-10-20T12:55:48Z</time>
      </trkpt>
      <trkpt lat="44.05165" lon="0.3211">
        <ele>7</ele>
        <time>2015-10-20T12:55:59Z</time>
      </trkpt>
      <trkpt lat="44.05174" lon="0.32106">
        <ele>7</ele>
        <time>2015-10-20T12:56:06Z</time>
      </trkpt>
      <trkpt lat="44.05183" lon="0.321">
        <ele>7</ele>
        <time>2015-10-20T12:56:14Z</time>
      </trkpt>
      <trkpt lat="44.05192" lon="0.32092">
        <ele>7</ele>
        <time>2015-10-20T12:56:25Z</time>
      </trkpt>
      <trkpt lat="44.05201" lon="0.32087">
        <ele>7</ele>
        <time>2015-10-20T12:56:33Z</time>
      </trkpt>
      <trkpt lat="44.0521" lon="0.32081">
        <ele>7</ele>
        <time>2015-10-20T12:56:42Z</time>
      </trkpt>
      <trkpt lat="44.05219" lon="0.32076">
        <ele>7</ele>
        <time>2015-10-20T12:56:49Z</time>
      </trkpt>
      <trkpt lat="44.05227" lon="0.3207">
        <ele>7</ele>
        <time>2015-10-20T12:56:55Z</time>
      </trkpt>
      <trkpt lat="44.05236" lon="0.32063">
        <ele>7</ele>
        <time>2015-10-20T12:57:04Z</time>
      </trkpt>
      <trkpt lat="44.05244" lon="0.32057">
        <ele>7</ele>
        <time>2015-10-20T12:57:13Z</time>
      </trkpt>
      <trkpt lat="44.05251" lon="0.32047">
        <ele>7</ele>
        <time>2015-10-20T12:57:22Z</time>
      </trkpt>
      <trkpt lat="44.05259" lon="0.3204">
        <ele>7</ele>
        <time>2015-10-20T12:57:31Z</time>
      </trkpt>
      <trkpt lat="44.05266" lon="0.32032">
        <ele>7</ele>
        <time>2015-10-20T12:57:38Z</time>
      </trkpt>
      <trkpt lat="44.05273" lon="0.32024">
        <ele>7</ele>
        <time>2015-10-20T12:57:46Z</time>
      </trkpt>
      <trkpt lat="44.05281" lon="0.32017">
        <ele>7</ele>
        <time>2015-10-20T12:57:55Z</time>
      </trkpt>
      <trkpt lat="44.05288" lon="0.32008">
        <ele>7</ele>
        <time>2015-10-20T12:58:02Z</time>
      </trkpt>
      <trkpt lat="44.05295" lon="0.31997">
        <ele>7</ele>
        <time>2015-10-20T12:58:12Z</time>
      </trkpt>
      <trkpt lat="44.05301" lon="0.31988">
        <ele>7</ele>
        <time>2015-10-20T12:58:20Z</time>
      </trkpt>
      <trkpt lat="44.05307" lon="0.31978">
        <ele>7</ele>
        <time>2015-10-20T12:58:27Z</time>
      </trkpt>
      <trkpt lat="44.05316" lon="0.31973">
        <ele>7</ele>
        <time>2015-10-20T12:58:35Z</time>
      </trkpt>
      <trkpt lat="44.05324" lon="0.31967">
        <ele>7</ele>
        <time>2015-10-20T12:58:43Z</time>
      </trkpt>
      <trkpt lat="44.05331" lon="0.31959">
        <ele>7</ele>
        <time>2015-10-20T12:58:51Z</time>
      </trkpt>
      <trkpt lat="44.05339" lon="0.31951">
        <ele>7</ele>
        <time>2015-10-20T12:59:01Z</time>
      </trkpt>
      <trkpt lat="44.05347" lon="0.31944">
        <ele>7</ele>
        <time>2015-10-20T12:59:08Z</time>
      </trkpt>
      <trkpt lat="44.05355" lon="0.31937">
        <ele>7</ele>
        <time>2015-10-20T12:59:17Z</time>
      </trkpt>
      <trkpt lat="44.05364" lon="0.31931">
        <ele>7</ele>
        <time>2015-10-20T12:59:25Z</time>
      </trkpt>
      <trkpt lat="44.05373" lon="0.31926">
        <ele>7</ele>
        <time>2015-10-20T12:59:32Z</time>
      </trkpt>
      <trkpt lat="44.05383" lon="0.31924">
        <ele>11</ele>
        <time>2015-10-20T12:59:41Z</time>
      </trkpt>
      <trkpt lat="44.05392" lon="0.31921">
        <ele>11</ele>
        <time>2015-10-20T12:59:49Z</time>
      </trkpt>
      <trkpt lat="44.05402" lon="0.31917">
        <ele>11</ele>
        <time>2015-10-20T12:59:57Z</time>
      </trkpt>
      <trkpt lat="44.0541" lon="0.31912">
        <ele>11</ele>
        <time>2015-10-20T13:00:07Z</time>
      </trkpt>
      <trkpt lat="44.05419" lon="0.31908">
        <ele>11</ele>
        <time>2015-10-20T13:00:14Z</time>
      </trkpt>
      <trkpt lat="44.05428" lon="0.31905">
        <ele>11</ele>
        <time>2015-10-20T13:00:26Z</time>
      </trkpt>
      <trkpt lat="44.05437" lon="0.31901">
        <ele>11</ele>
        <time>2015-10-20T13:00:35Z</time>
      </trkpt>
      <trkpt lat="44.05447" lon="0.31899">
        <ele>11</ele>
        <time>2015-10-20T13:00:43Z</time>
      </trkpt>
      <trkpt lat="44.05456" lon="0.31898">
        <ele>11</ele>
        <time>2015-10-20T13:00:51Z</time>
      </trkpt>
      <trkpt lat="44.05466" lon="0.31896">
        <ele>11</ele>
        <time>2015-10-20T13:00:59Z</time>
      </trkpt>
      <trkpt lat="44.05475" lon="0.31893">
        <ele>11</ele>
        <time>2015-10-20T13:01:05Z</time>
      </trkpt>
      <trkpt lat="44.05484" lon="0.31888">
        <ele>11</ele>
        <time>2015-10-20T13:01:20Z</time>
      </trkpt>
      <trkpt lat="44.05493" lon="0.31885">
        <ele>11</ele>
        <time>2015-10-20T13:01:28Z</time>
      </trkpt>
      <trkpt lat="44.05502" lon="0.31884">
        <ele>11</ele>
        <time>2015-10-20T13:01:37Z</time>
      </trkpt>
      <trkpt lat="44.05512" lon="0.31881">
        <ele>11</ele>
        <time>2015-10-20T13:01:46Z</time>
      </trkpt>
      <trkpt lat="44.05521" lon="0.31879">
        <ele>10</ele>
        <time>2015-10-20T13:01:56Z</time>
      </trkpt>
      <trkpt lat="44.05531" lon="0.31878">
        <ele>10</ele>
        <time>2015-10-20T13:02:05Z</time>
      </trkpt>
      <trkpt lat="44.0554" lon="0.31878">
        <ele>10</ele>
        <time>2015-10-20T13:02:13Z</time>
      </trkpt>
      <trkpt lat="44.0555" lon="0.3188">
        <ele>10</ele>
        <time>2015-10-20T13:02:23Z</time>
      </trkpt>
      <trkpt lat="44.05559" lon="0.3188">
        <ele>10</ele>
        <time>2015-10-20T13:02:30Z</time>
      </trkpt>
      <trkpt lat="44.05569" lon="0.31876">
        <ele>10</ele>
        <time>2015-10-20T13:02:39Z</time>
      </trkpt>
      <trkpt lat="44.05578" lon="0.31872">
        <ele>10</ele>
        <time>2015-10-20T13:02:46Z</time>
      </trkpt>
      <trkpt lat="44.05587" lon="0.31868">
        <ele>10</ele>
        <time>2015-10-20T13:02:52Z</time>
      </trkpt>
      <trkpt lat="44.05596" lon="0.31866">
        <ele>10</ele>
        <time>2015-10-20T13:02:59Z</time>
      </trkpt>
      <trkpt lat="44.05605" lon="0.31869">
        <ele>10</ele>
        <time>2015-10-20T13:03:09Z</time>
      </trkpt>
      <trkpt lat="44.05612" lon="0.31877">
        <ele>10</ele>
        <time>2015-10-20T13:03:23Z</time>
      </trkpt>
      <trkpt lat="44.05616" lon="0.31889">
        <ele>16</ele>
        <time>2015-10-20T13:03:40Z</time>
      </trkpt>
      <trkpt lat="44.05617" lon="0.31902">
        <ele>20</ele>
        <time>2015-10-20T13:04:11Z</time>
      </trkpt>
      <trkpt lat="44.05616" lon="0.31915">
        <ele>20</ele>
        <time>2015-10-20T13:04:58Z</time>
      </trkpt>
      <trkpt lat="44.05621" lon="0.31925">
        <ele>20</ele>
        <time>2015-10-20T13:06:10Z</time>
      </trkpt>
      <trkpt lat="44.05621" lon="0.31938">
        <ele>20</ele>
        <time>2015-10-20T13:06:29Z</time>
      </trkpt>
      <trkpt lat="44.0562" lon="0.31951">
        <ele>20</ele>
        <time>2015-10-20T13:06:39Z</time>
      </trkpt>
      <trkpt lat="44.05618" lon="0.31964">
        <ele>20</ele>
        <time>2015-10-20T13:06:50Z</time>
      </trkpt>
      <trkpt lat="44.05613" lon="0.31976">
        <ele>20</ele>
        <time>2015-10-20T13:06:59Z</time>
      </trkpt>
      <trkpt lat="44.05608" lon="0.31986">
        <ele>21</ele>
        <time>2015-10-20T13:07:13Z</time>
      </trkpt>
      <trkpt lat="44.05604" lon="0.31998">
        <ele>21</ele>
        <time>2015-10-20T13:07:25Z</time>
      </trkpt>
      <trkpt lat="44.05602" lon="0.32011">
        <ele>21</ele>
        <time>2015-10-20T13:07:40Z</time>
      </trkpt>
      <trkpt lat="44.056" lon="0.32023">
        <ele>21</ele>
        <time>2015-10-20T13:07:48Z</time>
      </trkpt>
      <trkpt lat="44.05595" lon="0.32035">
        <ele>21</ele>
        <time>2015-10-20T13:08:11Z</time>
      </trkpt>
      <trkpt lat="44.05587" lon="0.32039">
        <ele>25</ele>
        <time>2015-10-20T13:08:24Z</time>
      </trkpt>
      <trkpt lat="44.05577" lon="0.3204">
        <ele>25</ele>
        <time>2015-10-20T13:08:35Z</time>
      </trkpt>
      <trkpt lat="44.05568" lon="0.32041">
        <ele>25</ele>
        <time>2015-10-20T13:08:45Z</time>
      </trkpt>
      <trkpt lat="44.05558" lon="0.32043">
        <ele>25</ele>
        <time>2015-10-20T13:08:53Z</time>
      </trkpt>
      <trkpt lat="44.05549" lon="0.32044">
        <ele>29</ele>
        <time>2015-10-20T13:09:03Z</time>
      </trkpt>
      <trkpt lat="44.05539" lon="0.32046">
        <ele>29</ele>
        <time>2015-10-20T13:09:12Z</time>
      </trkpt>
      <trkpt lat="44.0553" lon="0.32048">
        <ele>33</ele>
        <time>2015-10-20T13:09:21Z</time>
      </trkpt>
      <trkpt lat="44.0552" lon="0.3205">
        <ele>33</ele>
        <time>2015-10-20T13:09:30Z</time>
      </trkpt>
      <trkpt lat="44.05511" lon="0.32052">
        <ele>33</ele>
        <time>2015-10-20T13:09:36Z</time>
      </trkpt>
      <trkpt lat="44.05502" lon="0.32054">
        <ele>33</ele>
        <time>2015-10-20T13:09:43Z</time>
      </trkpt>
      <trkpt lat="44.05493" lon="0.32062">
        <ele>33</ele>
        <time>2015-10-20T13:09:52Z</time>
      </trkpt>
      <trkpt lat="44.05489" lon="0.32074">
        <ele>38</ele>
        <time>2015-10-20T13:10:02Z</time>
      </trkpt>
      <trkpt lat="44.05487" lon="0.32086">
        <ele>38</ele>
        <time>2015-10-20T13:10:13Z</time>
      </trkpt>
      <trkpt lat="44.05485" lon="0.32099">
        <ele>38</ele>
        <time>2015-10-20T13:10:20Z</time>
      </trkpt>
      <trkpt lat="44.05484" lon="0.32113">
        <ele>38</ele>
        <time>2015-10-20T13:10:29Z</time>
      </trkpt>
      <trkpt lat="44.05484" lon="0.32126">
        <ele>38</ele>
        <time>2015-10-20T13:10:40Z</time>
      </trkpt>
      <trkpt lat="44.05484" lon="0.32139">
        <ele>38</ele>
        <time>2015-10-20T13:10:48Z</time>
      </trkpt>
      <trkpt lat="44.05486" lon="0.32152">
        <ele>43</ele>
        <time>2015-10-20T13:10:59Z</time>
      </trkpt>
      <trkpt lat="44.05485" lon="0.32166">
        <ele>43</ele>
        <time>2015-10-20T13:11:07Z</time>
      </trkpt>
      <trkpt lat="44.05483" lon="0.32179">
        <ele>43</ele>
        <time>2015-10-20T13:11:17Z</time>
      </trkpt>
      <trkpt lat="44.05482" lon="0.32192">
        <ele>43</ele>
        <time>2015-10-20T13:11:27Z</time>
      </trkpt>
      <trkpt lat="44.05481" lon="0.32206">
        <ele>43</ele>
        <time>2015-10-20T13:11:35Z</time>
      </trkpt>
      <trkpt lat="44.0548" lon="0.32219">
        <ele>43</ele>
        <time>2015-10-20T13:11:45Z</time>
      </trkpt>
      <trkpt lat="44.05478" lon="0.32232">
        <ele>43</ele>
        <time>2015-10-20T13:11:53Z</time>
      </trkpt>
      <trkpt lat="44.05475" lon="0.32245">
        <ele>43</ele>
        <time>2015-10-20T13:12:03Z</time>
      </trkpt>
      <trkpt lat="44.05474" lon="0.32259">
        <ele>43</ele>
        <time>2015-10-20T13:12:12Z</time>
      </trkpt>
      <trkpt lat="44.05472" lon="0.32273">
        <ele>43</ele>
        <time>2015-10-20T13:12:20Z</time>
      </trkpt>
      <trkpt lat="44.05473" lon="0.32285">
        <ele>43</ele>
        <time>2015-10-20T13:12:34Z</time>
      </trkpt>
      <trkpt lat="44.05478" lon="0.32296">
        <ele>43</ele>
        <time>2015-10-20T13:12:51Z</time>
      </trkpt>
      <trkpt lat="44.05486" lon="0.32304">
        <ele>35</ele>
        <time>2015-10-20T13:13:04Z</time>
      </trkpt>
      <trkpt lat="44.05493" lon="0.32312">
        <ele>35</ele>
        <time>2015-10-20T13:13:16Z</time>
      </trkpt>
      <trkpt lat="44.055" lon="0.3232">
        <ele>35</ele>
        <time>2015-10-20T13:13:25Z</time>
      </trkpt>
      <trkpt lat="44.05508" lon="0.32328">
        <ele>35</ele>
        <time>2015-10-20T13:13:38Z</time>
      </trkpt>
      <trkpt lat="44.05516" lon="0.32335">
        <ele>29</ele>
        <time>2015-10-20T13:13:46Z</time>
      </trkpt>
      <trkpt lat="44.05524" lon="0.32341">
        <ele>29</ele>
        <time>2015-10-20T13:13:56Z</time>
      </trkpt>
      <trkpt lat="44.05532" lon="0.32348">
        <ele>29</ele>
        <time>2015-10-20T13:14:06Z</time>
      </trkpt>
      <trkpt lat="44.05541" lon="0.32352">
        <ele>29</ele>
        <time>2015-10-20T13:14:15Z</time>
      </trkpt>
      <trkpt lat="44.05549" lon="0.32357">
        <ele>29</ele>
        <time>2015-10-20T13:14:28Z</time>
      </trkpt>
      <trkpt lat="44.05559" lon="0.32359">
        <ele>29</ele>
        <time>2015-10-20T13:14:40Z</time>
      </trkpt>
      <trkpt lat="44.05568" lon="0.32356">
        <ele>29</ele>
        <time>2015-10-20T13:14:56Z</time>
      </trkpt>
      <trkpt lat="44.05576" lon="0.32349">
        <ele>22</ele>
        <time>2015-10-20T13:15:10Z</time>
      </trkpt>
      <trkpt lat="44.05584" lon="0.32344">
        <ele>18</ele>
        <time>2015-10-20T13:15:21Z</time>
      </trkpt>
      <trkpt lat="44.05593" lon="0.3234">
        <ele>18</ele>
        <time>2015-10-20T13:15:36Z</time>
      </trkpt>
      <trkpt lat="44.05603" lon="0.32336">
        <ele>18</ele>
        <time>2015-10-20T13:15:47Z</time>
      </trkpt>
      <trkpt lat="44.05611" lon="0.32333">
        <ele>18</ele>
        <time>2015-10-20T13:15:56Z</time>
      </trkpt>
      <trkpt lat="44.0562" lon="0.32328">
        <ele>18</ele>
        <time>2015-10-20T13:16:05Z</time>
      </trkpt>
      <trkpt lat="44.05628" lon="0.32321">
        <ele>24</ele>
        <time>2015-10-20T13:16:19Z</time>
      </trkpt>
      <trkpt lat="44.05637" lon="0.32319">
        <ele>24</ele>
        <time>2015-10-20T13:16:29Z</time>
      </trkpt>
      <trkpt lat="44.05646" lon="0.32315">
        <ele>28</ele>
        <time>2015-10-20T13:16:40Z</time>
      </trkpt>
      <trkpt lat="44.05655" lon="0.3231">
        <ele>28</ele>
        <time>2015-10-20T13:16:51Z</time>
      </trkpt>
      <trkpt lat="44.05663" lon="0.32304">
        <ele>28</ele>
        <time>2015-10-20T13:17:10Z</time>
      </trkpt>
      <trkpt lat="44.05672" lon="0.32302">
        <ele>32</ele>
        <time>2015-10-20T13:17:53Z</time>
      </trkpt>
      <trkpt lat="44.0568" lon="0.32308">
        <ele>32</ele>
        <time>2015-10-20T13:18:26Z</time>
      </trkpt>
      <trkpt lat="44.05688" lon="0.32301">
        <ele>36</ele>
        <time>2015-10-20T13:18:44Z</time>
      </trkpt>
      <trkpt lat="44.05697" lon="0.32296">
        <ele>40</ele>
        <time>2015-10-20T13:18:58Z</time>
      </trkpt>
      <trkpt lat="44.05704" lon="0.32304">
        <ele>40</ele>
        <time>2015-10-20T13:19:14Z</time>
      </trkpt>
      <trkpt lat="44.05711" lon="0.32313">
        <ele>40</ele>
        <time>2015-10-20T13:19:43Z</time>
      </trkpt>
      <trkpt lat="44.05719" lon="0.32318">
        <ele>45</ele>
        <time>2015-10-20T13:19:56Z</time>
      </trkpt>
      <trkpt lat="44.05728" lon="0.32322">
        <ele>45</ele>
        <time>2015-10-20T13:20:10Z</time>
      </trkpt>
      <trkpt lat="44.05737" lon="0.32325">
        <ele>45</ele>
        <time>2015-10-20T13:20:36Z</time>
      </trkpt>
      <trkpt lat="44.05743" lon="0.32334">
        <ele>45</ele>
        <time>2015-10-20T13:21:40Z</time>
      </trkpt>
      <trkpt lat="44.05751" lon="0.32326">
        <ele>45</ele>
        <time>2015-10-20T13:21:58Z</time>
      </trkpt>
      <trkpt lat="44.05756" lon="0.32315">
        <ele>45</ele>
        <time>2015-10-20T13:22:09Z</time>
      </trkpt>
      <trkpt lat="44.05759" lon="0.32303">
        <ele>45</ele>
        <time>2015-10-20T13:22:18Z</time>
      </trkpt>
      <trkpt lat="44.05761" lon="0.3229">
        <ele>45</ele>
        <time>2015-10-20T13:22:28Z</time>
      </trkpt>
      <trkpt lat="44.05769" lon="0.32282">
        <ele>45</ele>
        <time>2015-10-20T13:22:38Z</time>
      </trkpt>
      <trkpt lat="44.05778" lon="0.32277">
        <ele>44</ele>
        <time>2015-10-20T13:22:48Z</time>
      </trkpt>
      <trkpt lat="44.05787" lon="0.32274">
        <ele>44</ele>
        <time>2015-10-20T13:22:59Z</time>
      </trkpt>
      <trkpt lat="44.05796" lon="0.32273">
        <ele>44</ele>
        <time>2015-10-20T13:23:06Z</time>
      </trkpt>
      <trkpt lat="44.05805" lon="0.32275">
        <ele>44</ele>
        <time>2015-10-20T13:23:16Z</time>
      </trkpt>
      <trkpt lat="44.05814" lon="0.32278">
        <ele>44</ele>
        <time>2015-10-20T13:23:25Z</time>
      </trkpt>
      <trkpt lat="44.05824" lon="0.32282">
        <ele>44</ele>
        <time>2015-10-20T13:23:34Z</time>
      </trkpt>
      <trkpt lat="44.05833" lon="0.32286">
        <ele>44</ele>
        <time>2015-10-20T13:23:44Z</time>
      </trkpt>
      <trkpt lat="44.05842" lon="0.32288">
        <ele>44</ele>
        <time>2015-10-20T13:23:52Z</time>
      </trkpt>
      <trkpt lat="44.0585" lon="0.32294">
        <ele>44</ele>
        <time>2015-10-20T13:24:03Z</time>
      </trkpt>
      <trkpt lat="44.05858" lon="0.32301">
        <ele>44</ele>
        <time>2015-10-20T13:24:11Z</time>
      </trkpt>
      <trkpt lat="44.05868" lon="0.32303">
        <ele>44</ele>
        <time>2015-10-20T13:24:22Z</time>
      </trkpt>
      <trkpt lat="44.05878" lon="0.32303">
        <ele>44</ele>
        <time>2015-10-20T13:24:33Z</time>
      </trkpt>
      <trkpt lat="44.05886" lon="0.32297">
        <ele>44</ele>
        <time>2015-10-20T13:24:43Z</time>
      </trkpt>
      <trkpt lat="44.05894" lon="0.32289">
        <ele>44</ele>
        <time>2015-10-20T13:24:55Z</time>
      </trkpt>
      <trkpt lat="44.05901" lon="0.3228">
        <ele>44</ele>
        <time>2015-10-20T13:25:01Z</time>
      </trkpt>
      <trkpt lat="44.05908" lon="0.32272">
        <ele>44</ele>
        <time>2015-10-20T13:25:09Z</time>
      </trkpt>
      <trkpt lat="44.05917" lon="0.32265">
        <ele>48</ele>
        <time>2015-10-20T13:25:18Z</time>
      </trkpt>
      <trkpt lat="44.05925" lon="0.32258">
        <ele>48</ele>
        <time>2015-10-20T13:25:28Z</time>
      </trkpt>
      <trkpt lat="44.05933" lon="0.32251">
        <ele>48</ele>
        <time>2015-10-20T13:25:38Z</time>
      </trkpt>
      <trkpt lat="44.05942" lon="0.32248">
        <ele>48</ele>
        <time>2015-10-20T13:25:46Z</time>
      </trkpt>
      <trkpt lat="44.05952" lon="0.32247">
        <ele>48</ele>
        <time>2015-10-20T13:25:57Z</time>
      </trkpt>
      <trkpt lat="44.05962" lon="0.32244">
        <ele>48</ele>
        <time>2015-10-20T13:26:09Z</time>
      </trkpt>
      <trkpt lat="44.05971" lon="0.32239">
        <ele>48</ele>
        <time>2015-10-20T13:26:18Z</time>
      </trkpt>
      <trkpt lat="44.0598" lon="0.32236">
        <ele>48</ele>
        <time>2015-10-20T13:26:26Z</time>
      </trkpt>
      <trkpt lat="44.0599" lon="0.32232">
        <ele>48</ele>
        <time>2015-10-20T13:26:33Z</time>
      </trkpt>
      <trkpt lat="44.06" lon="0.32231">
        <ele>48</ele>
        <time>2015-10-20T13:26:44Z</time>
      </trkpt>
      <trkpt lat="44.06009" lon="0.32229">
        <ele>48</ele>
        <time>2015-10-20T13:26:53Z</time>
      </trkpt>
      <trkpt lat="44.06018" lon="0.32225">
        <ele>48</ele>
        <time>2015-10-20T13:27:03Z</time>
      </trkpt>
      <trkpt lat="44.06027" lon="0.32222">
        <ele>48</ele>
        <time>2015-10-20T13:27:13Z</time>
      </trkpt>
      <trkpt lat="44.06036" lon="0.32223">
        <ele>48</ele>
        <time>2015-10-20T13:27:29Z</time>
      </trkpt>
      <trkpt lat="44.06038" lon="0.32235">
        <ele>48</ele>
        <time>2015-10-20T13:27:56Z</time>
      </trkpt>
      <trkpt lat="44.06036" lon="0.32248">
        <ele>48</ele>
        <time>2015-10-20T13:28:05Z</time>
      </trkpt>
      <trkpt lat="44.06034" lon="0.3226">
        <ele>48</ele>
        <time>2015-10-20T13:28:15Z</time>
      </trkpt>
      <trkpt lat="44.06033" lon="0.32274">
        <ele>48</ele>
        <time>2015-10-20T13:28:25Z</time>
      </trkpt>
      <trkpt lat="44.06031" lon="0.32287">
        <ele>48</ele>
        <time>2015-10-20T13:28:35Z</time>
      </trkpt>
      <trkpt lat="44.06031" lon="0.323">
        <ele>48</ele>
        <time>2015-10-20T13:28:43Z</time>
      </trkpt>
      <trkpt lat="44.0603" lon="0.32312">
        <ele>48</ele>
        <time>2015-10-20T13:28:52Z</time>
      </trkpt>
      <trkpt lat="44.0603" lon="0.32325">
        <ele>51</ele>
        <time>2015-10-20T13:29:02Z</time>
      </trkpt>
      <trkpt lat="44.0603" lon="0.32339">
        <ele>51</ele>
        <time>2015-10-20T13:29:11Z</time>
      </trkpt>
      <trkpt lat="44.0603" lon="0.32351">
        <ele>51</ele>
        <time>2015-10-20T13:29:21Z</time>
      </trkpt>
      <trkpt lat="44.0603" lon="0.32364">
        <ele>51</ele>
        <time>2015-10-20T13:29:30Z</time>
      </trkpt>
      <trkpt lat="44.0603" lon="0.32377">
        <ele>51</ele>
        <time>2015-10-20T13:29:38Z</time>
      </trkpt>
      <trkpt lat="44.0603" lon="0.3239">
        <ele>51</ele>
        <time>2015-10-20T13:29:48Z</time>
      </trkpt>
      <trkpt lat="44.06029" lon="0.32403">
        <ele>51</ele>
        <time>2015-10-20T13:29:56Z</time>
      </trkpt>
      <trkpt lat="44.06029" lon="0.32417">
        <ele>51</ele>
        <time>2015-10-20T13:30:07Z</time>
      </trkpt>
      <trkpt lat="44.06029" lon="0.3243">
        <ele>51</ele>
        <time>2015-10-20T13:30:15Z</time>
      </trkpt>
      <trkpt lat="44.06028" lon="0.32443">
        <ele>51</ele>
        <time>2015-10-20T13:30:25Z</time>
      </trkpt>
      <trkpt lat="44.06028" lon="0.32456">
        <ele>51</ele>
        <time>2015-10-20T13:30:34Z</time>
      </trkpt>
      <trkpt lat="44.06028" lon="0.32469">
        <ele>51</ele>
        <time>2015-10-20T13:30:42Z</time>
      </trkpt>
      <trkpt lat="44.06028" lon="0.32483">
        <ele>51</ele>
        <time>2015-10-20T13:30:52Z</time>
      </trkpt>
      <trkpt lat="44.06028" lon="0.32496">
        <ele>51</ele>
        <time>2015-10-20T13:31:00Z</time>
      </trkpt>
      <trkpt lat="44.06028" lon="0.32509">
        <ele>51</ele>
        <time>2015-10-20T13:31:09Z</time>
      </trkpt>
      <trkpt lat="44.06028" lon="0.32522">
        <ele>56</ele>
        <time>2015-10-20T13:31:19Z</time>
      </trkpt>
      <trkpt lat="44.06027" lon="0.32535">
        <ele>56</ele>
        <time>2015-10-20T13:31:27Z</time>
      </trkpt>
      <trkpt lat="44.06026" lon="0.32548">
        <ele>56</ele>
        <time>2015-10-20T13:31:36Z</time>
      </trkpt>
      <trkpt lat="44.06025" lon="0.32561">
        <ele>56</ele>
        <time>2015-10-20T13:31:45Z</time>
      </trkpt>
      <trkpt lat="44.06024" lon="0.32574">
        <ele>56</ele>
        <time>2015-10-20T13:31:53Z</time>
      </trkpt>
      <trkpt lat="44.06023" lon="0.32587">
        <ele>56</ele>
        <time>2015-10-20T13:32:03Z</time>
      </trkpt>
      <trkpt lat="44.06023" lon="0.32601">
        <ele>56</ele>
        <time>2015-10-20T13:32:11Z</time>
      </trkpt>
      <trkpt lat="44.06023" lon="0.32615">
        <ele>56</ele>
        <time>2015-10-20T13:32:20Z</time>
      </trkpt>
      <trkpt lat="44.06022" lon="0.32628">
        <ele>56</ele>
        <time>2015-10-20T13:32:28Z</time>
      </trkpt>
      <trkpt lat="44.06022" lon="0.32642">
        <ele>56</ele>
        <time>2015-10-20T13:32:36Z</time>
      </trkpt>
      <trkpt lat="44.06022" lon="0.32656">
        <ele>56</ele>
        <time>2015-10-20T13:32:45Z</time>
      </trkpt>
      <trkpt lat="44.06023" lon="0.32669">
        <ele>56</ele>
        <time>2015-10-20T13:32:52Z</time>
      </trkpt>
      <trkpt lat="44.06023" lon="0.32683">
        <ele>56</ele>
        <time>2015-10-20T13:33:01Z</time>
      </trkpt>
      <trkpt lat="44.06024" lon="0.32697">
        <ele>56</ele>
        <time>2015-10-20T13:33:11Z</time>
      </trkpt>
      <trkpt lat="44.06024" lon="0.3271">
        <ele>56</ele>
        <time>2015-10-20T13:33:18Z</time>
      </trkpt>
      <trkpt lat="44.06025" lon="0.32723">
        <ele>56</ele>
        <time>2015-10-20T13:33:27Z</time>
      </trkpt>
      <trkpt lat="44.06025" lon="0.32735">
        <ele>60</ele>
        <time>2015-10-20T13:33:36Z</time>
      </trkpt>
      <trkpt lat="44.06025" lon="0.32748">
        <ele>60</ele>
        <time>2015-10-20T13:33:44Z</time>
      </trkpt>
      <trkpt lat="44.06016" lon="0.32755">
        <ele>60</ele>
        <time>2015-10-20T13:33:56Z</time>
      </trkpt>
      <trkpt lat="44.06007" lon="0.32757">
        <ele>60</ele>
        <time>2015-10-20T13:34:08Z</time>
      </trkpt>
      <trkpt lat="44.05998" lon="0.3276">
        <ele>60</ele>
        <time>2015-10-20T13:34:20Z</time>
      </trkpt>
      <trkpt lat="44.05988" lon="0.32763">
        <ele>60</ele>
        <time>2015-10-20T13:34:29Z</time>
      </trkpt>
      <trkpt lat="44.05979" lon="0.32764">
        <ele>60</ele>
        <time>2015-10-20T13:34:39Z</time>
      </trkpt>
      <trkpt lat="44.0597" lon="0.32765">
        <ele>60</ele>
        <time>2015-10-20T13:34:46Z</time>
      </trkpt>
      <trkpt lat="44.05963" lon="0.32774">
        <ele>60</ele>
        <time>2015-10-20T13:34:58Z</time>
      </trkpt>
      <trkpt lat="44.05968" lon="0.32785">
        <ele>60</ele>
        <time>2015-10-20T13:35:09Z</time>
      </trkpt>
      <trkpt lat="44.05974" lon="0.32796">
        <ele>60</ele>
        <time>2015-10-20T13:35:21Z</time>
      </trkpt>
      <trkpt lat="44.05977" lon="0.32809">
        <ele>60</ele>
        <time>2015-10-20T13:35:31Z</time>
      </trkpt>
      <trkpt lat="44.05976" lon="0.32822">
        <ele>60</ele>
        <time>2015-10-20T13:35:48Z</time>
      </trkpt>
      <trkpt lat="44.05975" lon="0.32834">
        <ele>62</ele>
        <time>2015-10-20T13:36:23Z</time>
      </trkpt>
      <trkpt lat="44.05974" lon="0.32847">
        <ele>62</ele>
        <time>2015-10-20T13:37:14Z</time>
      </trkpt>
      <trkpt lat="44.05972" lon="0.32861">
        <ele>62</ele>
        <time>2015-10-20T13:37:26Z</time>
      </trkpt>
      <trkpt lat="44.05969" lon="0.32873">
        <ele>62</ele>
        <time>2015-10-20T13:37:37Z</time>
      </trkpt>
      <trkpt lat="44.05964" lon="0.32884">
        <ele>62</ele>
        <time>2015-10-20T13:37:44Z</time>
      </trkpt>
      <trkpt lat="44.05959" lon="0.32895">
        <ele>62</ele>
        <time>2015-10-20T13:37:52Z</time>
      </trkpt>
      <trkpt lat="44.05957" lon="0.32907">
        <ele>62</ele>
        <time>2015-10-20T13:38:04Z</time>
      </trkpt>
      <trkpt lat="44.05954" lon="0.32919">
        <ele>62</ele>
        <time>2015-10-20T13:38:13Z</time>
      </trkpt>
      <trkpt lat="44.05949" lon="0.3293">
        <ele>62</ele>
        <time>2015-10-20T13:38:23Z</time>
      </trkpt>
      <trkpt lat="44.05946" lon="0.32942">
        <ele>62</ele>
        <time>2015-10-20T13:38:32Z</time>
      </trkpt>
      <trkpt lat="44.05943" lon="0.32954">
        <ele>62</ele>
        <time>2015-10-20T13:38:43Z</time>
      </trkpt>
      <trkpt lat="44.05938" lon="0.32965">
        <ele>62</ele>
        <time>2015-10-20T13:38:50Z</time>
      </trkpt>
      <trkpt lat="44.05931" lon="0.32976">
        <ele>66</ele>
        <time>2015-10-20T13:38:56Z</time>
      </trkpt>
      <trkpt lat="44.05926" lon="0.32987">
        <ele>66</ele>
        <time>2015-10-20T13:39:03Z</time>
      </trkpt>
      <trkpt lat="44.05921" lon="0.32998">
        <ele>66</ele>
        <time>2015-10-20T13:39:12Z</time>
      </trkpt>
      <trkpt lat="44.05915" lon="0.3301">
        <ele>66</ele>
        <time>2015-10-20T13:39:19Z</time>
      </trkpt>
      <trkpt lat="44.0591" lon="0.33021">
        <ele>66</ele>
        <time>2015-10-20T13:39:27Z</time>
      </trkpt>
      <trkpt lat="44.05905" lon="0.33032">
        <ele>66</ele>
        <time>2015-10-20T13:39:34Z</time>
      </trkpt>
      <trkpt lat="44.05899" lon="0.33044">
        <ele>66</ele>
        <time>2015-10-20T13:39:40Z</time>
      </trkpt>
      <trkpt lat="44.05894" lon="0.33057">
        <ele>66</ele>
        <time>2015-10-20T13:39:49Z</time>
      </trkpt>
      <trkpt lat="44.0589" lon="0.33069">
        <ele>66</ele>
        <time>2015-10-20T13:39:59Z</time>
      </trkpt>
      <trkpt lat="44.05886" lon="0.3308">
        <ele>66</ele>
        <time>2015-10-20T13:40:07Z</time>
      </trkpt>
      <trkpt lat="44.05885" lon="0.33093">
        <ele>66</ele>
        <time>2015-10-20T13:40:19Z</time>
      </trkpt>
      <trkpt lat="44.05885" lon="0.33106">
        <ele>66</ele>
        <time>2015-10-20T13:40:28Z</time>
      </trkpt>
      <trkpt lat="44.05883" lon="0.33119">
        <ele>66</ele>
        <time>2015-10-20T13:40:38Z</time>
      </trkpt>
      <trkpt lat="44.05879" lon="0.33132">
        <ele>66</ele>
        <time>2015-10-20T13:40:46Z</time>
      </trkpt>
      <trkpt lat="44.05874" lon="0.33143">
        <ele>66</ele>
        <time>2015-10-20T13:40:54Z</time>
      </trkpt>
      <trkpt lat="44.05869" lon="0.33154">
        <ele>66</ele>
        <time>2015-10-20T13:41:02Z</time>
      </trkpt>
      <trkpt lat="44.05863" lon="0.33165">
        <ele>66</ele>
        <time>2015-10-20T13:41:09Z</time>
      </trkpt>
      <trkpt lat="44.05858" lon="0.33176">
        <ele>66</ele>
        <time>2015-10-20T13:41:17Z</time>
      </trkpt>
      <trkpt lat="44.05854" lon="0.33188">
        <ele>66</ele>
        <time>2015-10-20T13:41:26Z</time>
      </trkpt>
      <trkpt lat="44.05849" lon="0.332">
        <ele>66</ele>
        <time>2015-10-20T13:41:33Z</time>
      </trkpt>
      <trkpt lat="44.05846" lon="0.33213">
        <ele>66</ele>
        <time>2015-10-20T13:41:43Z</time>
      </trkpt>
      <trkpt lat="44.05842" lon="0.33225">
        <ele>66</ele>
        <time>2015-10-20T13:41:51Z</time>
      </trkpt>
      <trkpt lat="44.05838" lon="0.33237">
        <ele>66</ele>
        <time>2015-10-20T13:41:58Z</time>
      </trkpt>
      <trkpt lat="44.05834" lon="0.33249">
        <ele>66</ele>
        <time>2015-10-20T13:42:07Z</time>
      </trkpt>
      <trkpt lat="44.0583" lon="0.33261">
        <ele>66</ele>
        <time>2015-10-20T13:42:15Z</time>
      </trkpt>
      <trkpt lat="44.05826" lon="0.33274">
        <ele>66</ele>
        <time>2015-10-20T13:42:22Z</time>
      </trkpt>
      <trkpt lat="44.05822" lon="0.33287">
        <ele>71</ele>
        <time>2015-10-20T13:42:32Z</time>
      </trkpt>
      <trkpt lat="44.05818" lon="0.33299">
        <ele>71</ele>
        <time>2015-10-20T13:42:40Z</time>
      </trkpt>
      <trkpt lat="44.05815" lon="0.33311">
        <ele>71</ele>
        <time>2015-10-20T13:42:51Z</time>
      </trkpt>
      <trkpt lat="44.05814" lon="0.33324">
        <ele>71</ele>
        <time>2015-10-20T13:43:00Z</time>
      </trkpt>
      <trkpt lat="44.05811" lon="0.33338">
        <ele>71</ele>
        <time>2015-10-20T13:43:09Z</time>
      </trkpt>
      <trkpt lat="44.05807" lon="0.33349">
        <ele>71</ele>
        <time>2015-10-20T13:43:17Z</time>
      </trkpt>
      <trkpt lat="44.05803" lon="0.3336">
        <ele>71</ele>
        <time>2015-10-20T13:43:23Z</time>
      </trkpt>
      <trkpt lat="44.05798" lon="0.33372">
        <ele>71</ele>
        <time>2015-10-20T13:43:38Z</time>
      </trkpt>
      <trkpt lat="44.05795" lon="0.33383">
        <ele>71</ele>
        <time>2015-10-20T13:43:46Z</time>
      </trkpt>
      <trkpt lat="44.0579" lon="0.33395">
        <ele>71</ele>
        <time>2015-10-20T13:43:57Z</time>
      </trkpt>
      <trkpt lat="44.05786" lon="0.33407">
        <ele>75</ele>
        <time>2015-10-20T13:44:06Z</time>
      </trkpt>
      <trkpt lat="44.05783" lon="0.3342">
        <ele>75</ele>
        <time>2015-10-20T13:44:14Z</time>
      </trkpt>
      <trkpt lat="44.05781" lon="0.33433">
        <ele>75</ele>
        <time>2015-10-20T13:44:24Z</time>
      </trkpt>
      <trkpt lat="44.05779" lon="0.33446">
        <ele>75</ele>
        <time>2015-10-20T13:44:32Z</time>
      </trkpt>
      <trkpt lat="44.05777" lon="0.33459">
        <ele>75</ele>
        <time>2015-10-20T13:44:42Z</time>
      </trkpt>
      <trkpt lat="44.05775" lon="0.33471">
        <ele>75</ele>
        <time>2015-10-20T13:44:52Z</time>
      </trkpt>
      <trkpt lat="44.05778" lon="0.33484">
        <ele>75</ele>
        <time>2015-10-20T13:45:07Z</time>
      </trkpt>
      <trkpt lat="44.05777" lon="0.33498">
        <ele>75</ele>
        <time>2015-10-20T13:45:19Z</time>
      </trkpt>
      <trkpt lat="44.05774" lon="0.33511">
        <ele>75</ele>
        <time>2015-10-20T13:45:28Z</time>
      </trkpt>
      <trkpt lat="44.05772" lon="0.33524">
        <ele>75</ele>
        <time>2015-10-20T13:45:37Z</time>
      </trkpt>
      <trkpt lat="44.05772" lon="0.33537">
        <ele>79</ele>
        <time>2015-10-20T13:45:45Z</time>
      </trkpt>
      <trkpt lat="44.0577" lon="0.33551">
        <ele>79</ele>
        <time>2015-10-20T13:45:55Z</time>
      </trkpt>
      <trkpt lat="44.05765" lon="0.3356">
        <ele>79</ele>
        <time>2015-10-20T13:46:02Z</time>
      </trkpt>
      <trkpt lat="44.05755" lon="0.33558">
        <ele>79</ele>
        <time>2015-10-20T13:46:19Z</time>
      </trkpt>
      <trkpt lat="44.05746" lon="0.33554">
        <ele>79</ele>
        <time>2015-10-20T13:46:35Z</time>
      </trkpt>
      <trkpt lat="44.05737" lon="0.33551">
        <ele>79</ele>
        <time>2015-10-20T13:46:43Z</time>
      </trkpt>
      <trkpt lat="44.05728" lon="0.33548">
        <ele>79</ele>
        <time>2015-10-20T13:46:51Z</time>
      </trkpt>
      <trkpt lat="44.05718" lon="0.33549">
        <ele>79</ele>
        <time>2015-10-20T13:47:02Z</time>
      </trkpt>
      <trkpt lat="44.05711" lon="0.33557">
        <ele>79</ele>
        <time>2015-10-20T13:47:11Z</time>
      </trkpt>
      <trkpt lat="44.05705" lon="0.33568">
        <ele>79</ele>
        <time>2015-10-20T13:47:21Z</time>
      </trkpt>
      <trkpt lat="44.057" lon="0.33579">
        <ele>79</ele>
        <time>2015-10-20T13:47:29Z</time>
      </trkpt>
      <trkpt lat="44.05696" lon="0.33592">
        <ele>79</ele>
        <time>2015-10-20T13:47:38Z</time>
      </trkpt>
      <trkpt lat="44.05692" lon="0.33603">
        <ele>79</ele>
        <time>2015-10-20T13:47:48Z</time>
      </trkpt>
      <trkpt lat="44.05688" lon="0.33615">
        <ele>79</ele>
        <time>2015-10-20T13:47:56Z</time>
      </trkpt>
      <trkpt lat="44.05683" lon="0.33626">
        <ele>79</ele>
        <time>2015-10-20T13:48:08Z</time>
      </trkpt>
      <trkpt lat="44.0568" lon="0.33639">
        <ele>79</ele>
        <time>2015-10-20T13:48:17Z</time>
      </trkpt>
      <trkpt lat="44.05676" lon="0.33651">
        <ele>79</ele>
        <time>2015-10-20T13:48:27Z</time>
      </trkpt>
      <trkpt lat="44.05672" lon="0.33663">
        <ele>76</ele>
        <time>2015-10-20T13:48:36Z</time>
      </trkpt>
      <trkpt lat="44.05668" lon="0.33675">
        <ele>76</ele>
        <time>2015-10-20T13:48:43Z</time>
      </trkpt>
      <trkpt lat="44.05663" lon="0.33687">
        <ele>76</ele>
        <time>2015-10-20T13:48:52Z</time>
      </trkpt>
      <trkpt lat="44.05659" lon="0.33699">
        <ele>76</ele>
        <time>2015-10-20T13:49:00Z</time>
      </trkpt>
      <trkpt lat="44.05656" lon="0.33712">
        <ele>76</ele>
        <time>2015-10-20T13:49:08Z</time>
      </trkpt>
      <trkpt lat="44.05652" lon="0.33725">
        <ele>76</ele>
        <time>2015-10-20T13:49:18Z</time>
      </trkpt>
      <trkpt lat="44.05649" lon="0.33737">
        <ele>76</ele>
        <time>2015-10-20T13:49:26Z</time>
      </trkpt>
      <trkpt lat="44.05645" lon="0.33749">
        <ele>76</ele>
        <time>2015-10-20T13:49:37Z</time>
      </trkpt>
      <trkpt lat="44.05644" lon="0.33762">
        <ele>76</ele>
        <time>2015-10-20T13:49:46Z</time>
      </trkpt>
      <trkpt lat="44.05642" lon="0.33775">
        <ele>76</ele>
        <time>2015-10-20T13:49:57Z</time>
      </trkpt>
      <trkpt lat="44.0564" lon="0.33787">
        <ele>76</ele>
        <time>2015-10-20T13:50:06Z</time>
      </trkpt>
      <trkpt lat="44.05636" lon="0.338">
        <ele>76</ele>
        <time>2015-10-20T13:50:14Z</time>
      </trkpt>
      <trkpt lat="44.05632" lon="0.33812">
        <ele>76</ele>
        <time>2015-10-20T13:50:23Z</time>
      </trkpt>
      <trkpt lat="44.05627" lon="0.33825">
        <ele>76</ele>
        <time>2015-10-20T13:50:30Z</time>
      </trkpt>
      <trkpt lat="44.05622" lon="0.33837">
        <ele>76</ele>
        <time>2015-10-20T13:50:38Z</time>
      </trkpt>
      <trkpt lat="44.05618" lon="0.33849">
        <ele>76</ele>
        <time>2015-10-20T13:50:48Z</time>
      </trkpt>
      <trkpt lat="44.05614" lon="0.33861">
        <ele>76</ele>
        <time>2015-10-20T13:50:55Z</time>
      </trkpt>
      <trkpt lat="44.0561" lon="0.33872">
        <ele>73</ele>
        <time>2015-10-20T13:51:03Z</time>
      </trkpt>
      <trkpt lat="44.05606" lon="0.33884">
        <ele>73</ele>
        <time>2015-10-20T13:51:12Z</time>
      </trkpt>
      <trkpt lat="44.05603" lon="0.33896">
        <ele>73</ele>
        <time>2015-10-20T13:51:19Z</time>
      </trkpt>
      <trkpt lat="44.05598" lon="0.33908">
        <ele>73</ele>
        <time>2015-10-20T13:51:29Z</time>
      </trkpt>
      <trkpt lat="44.05592" lon="0.33919">
        <ele>73</ele>
        <time>2015-10-20T13:51:37Z</time>
      </trkpt>
      <trkpt lat="44.05584" lon="0.33915">
        <ele>73</ele>
        <time>2015-10-20T13:51:57Z</time>
      </trkpt>
      <trkpt lat="44.05576" lon="0.33906">
        <ele>73</ele>
        <time>2015-10-20T13:52:12Z</time>
      </trkpt>
      <trkpt lat="44.05567" lon="0.33903">
        <ele>73</ele>
        <time>2015-10-20T13:52:21Z</time>
      </trkpt>
      <trkpt lat="44.05557" lon="0.33904">
        <ele>73</ele>
        <time>2015-10-20T13:52:29Z</time>
      </trkpt>
      <trkpt lat="44.05548" lon="0.33911">
        <ele>73</ele>
        <time>2015-10-20T13:52:38Z</time>
      </trkpt>
      <trkpt lat="44.05543" lon="0.33922">
        <ele>73</ele>
        <time>2015-10-20T13:52:46Z</time>
      </trkpt>
      <trkpt lat="44.05538" lon="0.33933">
        <ele>73</ele>
        <time>2015-10-20T13:52:57Z</time>
      </trkpt>
      <trkpt lat="44.05534" lon="0.33944">
        <ele>73</ele>
        <time>2015-10-20T13:53:07Z</time>
      </trkpt>
      <trkpt lat="44.05532" lon="0.33958">
        <ele>73</ele>
        <time>2015-10-20T13:53:16Z</time>
      </trkpt>
      <trkpt lat="44.05529" lon="0.33971">
        <ele>73</ele>
        <time>2015-10-20T13:53:26Z</time>
      </trkpt>
      <trkpt lat="44.05528" lon="0.33983">
        <ele>73</ele>
        <time>2015-10-20T13:53:33Z</time>
      </trkpt>
      <trkpt lat="44.05525" lon="0.33996">
        <ele>69</ele>
        <time>2015-10-20T13:53:44Z</time>
      </trkpt>
      <trkpt lat="44.05522" lon="0.34009">
        <ele>69</ele>
        <time>2015-10-20T13:53:53Z</time>
      </trkpt>
      <trkpt lat="44.05519" lon="0.34021">
        <ele>69</ele>
        <time>2015-10-20T13:54:00Z</time>
      </trkpt>
      <trkpt lat="44.05518" lon="0.34035">
        <ele>69</ele>
        <time>2015-10-20T13:54:10Z</time>
      </trkpt>
      <trkpt lat="44.05516" lon="0.34048">
        <ele>69</ele>
        <time>2015-10-20T13:54:18Z</time>
      </trkpt>
      <trkpt lat="44.05516" lon="0.34062">
        <ele>69</ele>
        <time>2015-10-20T13:54:28Z</time>
      </trkpt>
      <trkpt lat="44.05515" lon="0.34076">
        <ele>69</ele>
        <time>2015-10-20T13:54:38Z</time>
      </trkpt>
      <trkpt lat="44.05515" lon="0.3409">
        <ele>69</ele>
        <time>2015-10-20T13:54:47Z</time>
      </trkpt>
      <trkpt lat="44.05514" lon="0.34103">
        <ele>69</ele>
        <time>2015-10-20T13:54:56Z</time>
      </trkpt>
      <trkpt lat="44.05512" lon="0.34117">
        <ele>69</ele>
        <time>2015-10-20T13:55:04Z</time>
      </trkpt>
      <trkpt lat="44.05511" lon="0.34129">
        <ele>69</ele>
        <time>2015-10-20T13:55:13Z</time>
      </trkpt>
      <trkpt lat="44.05511" lon="0.34142">
        <ele>69</ele>
        <time>2015-10-20T13:55:21Z</time>
      </trkpt>
      <trkpt lat="44.05509" lon="0.34156">
        <ele>69</ele>
        <time>2015-10-20T13:55:29Z</time>
      </trkpt>
      <trkpt lat="44.05508" lon="0.34169">
        <ele>69</ele>
        <time>2015-10-20T13:55:39Z</time>
      </trkpt>
      <trkpt lat="44.05508" lon="0.34183">
        <ele>69</ele>
        <time>2015-10-20T13:55:47Z</time>
      </trkpt>
      <trkpt lat="44.05508" lon="0.34197">
        <ele>69</ele>
        <time>2015-10-20T13:55:57Z</time>
      </trkpt>
      <trkpt lat="44.05508" lon="0.34211">
        <ele>69</ele>
        <time>2015-10-20T13:56:06Z</time>
      </trkpt>
      <trkpt lat="44.05507" lon="0.34224">
        <ele>69</ele>
        <time>2015-10-20T13:56:13Z</time>
      </trkpt>
      <trkpt lat="44.05505" lon="0.34237">
        <ele>69</ele>
        <time>2015-10-20T13:56:22Z</time>
      </trkpt>
      <trkpt lat="44.05503" lon="0.3425">
        <ele>69</ele>
        <time>2015-10-20T13:56:30Z</time>
      </trkpt>
      <trkpt lat="44.05502" lon="0.34263">
        <ele>69</ele>
        <time>2015-10-20T13:56:37Z</time>
      </trkpt>
      <trkpt lat="44.055" lon="0.34277">
        <ele>69</ele>
        <time>2015-10-20T13:56:47Z</time>
      </trkpt>
      <trkpt lat="44.05499" lon="0.3429">
        <ele>65</ele>
        <time>2015-10-20T13:56:56Z</time>
      </trkpt>
      <trkpt lat="44.05497" lon="0.34304">
        <ele>65</ele>
        <time>2015-10-20T13:57:07Z</time>
      </trkpt>
      <trkpt lat="44.0549" lon="0.34312">
        <ele>65</ele>
        <time>2015-10-20T13:57:18Z</time>
      </trkpt>
      <trkpt lat="44.05482" lon="0.34319">
        <ele>65</ele>
        <time>2015-10-20T13:57:29Z</time>
      </trkpt>
      <trkpt lat="44.05477" lon="0.3433">
        <ele>65</ele>
        <time>2015-10-20T13:57:37Z</time>
      </trkpt>
      <trkpt lat="44.05473" lon="0.34342">
        <ele>65</ele>
        <time>2015-10-20T13:57:45Z</time>
      </trkpt>
      <trkpt lat="44.05469" lon="0.34354">
        <ele>65</ele>
        <time>2015-10-20T13:57:58Z</time>
      </trkpt>
      <trkpt lat="44.05464" lon="0.34365">
        <ele>65</ele>
        <time>2015-10-20T13:58:07Z</time>
      </trkpt>
      <trkpt lat="44.05459" lon="0.34375">
        <ele>65</ele>
        <time>2015-10-20T13:58:18Z</time>
      </trkpt>
      <trkpt lat="44.05455" lon="0.34387">
        <ele>65</ele>
        <time>2015-10-20T13:58:50Z</time>
      </trkpt>
      <trkpt lat="44.05452" lon="0.344">
        <ele>65</ele>
        <time>2015-10-20T13:59:04Z</time>
      </trkpt>
      <trkpt lat="44.05448" lon="0.34411">
        <ele>65</ele>
        <time>2015-10-20T13:59:22Z</time>
      </trkpt>
      <trkpt lat="44.05446" lon="0.34423">
        <ele>65</ele>
        <time>2015-10-20T13:59:30Z</time>
      </trkpt>
      <trkpt lat="44.05445" lon="0.34436">
        <ele>61</ele>
        <time>2015-10-20T13:59:40Z</time>
      </trkpt>
      <trkpt lat="44.05442" lon="0.34449">
        <ele>61</ele>
        <time>2015-10-20T13:59:52Z</time>
      </trkpt>
      <trkpt lat="44.05438" lon="0.3446">
        <ele>61</ele>
        <time>2015-10-20T14:00:01Z</time>
      </trkpt>
      <trkpt lat="44.05436" lon="0.34473">
        <ele>61</ele>
        <time>2015-10-20T14:00:13Z</time>
      </trkpt>
      <trkpt lat="44.05436" lon="0.34486">
        <ele>61</ele>
        <time>2015-10-20T14:00:22Z</time>
      </trkpt>
      <trkpt lat="44.05434" lon="0.34499">
        <ele>61</ele>
        <time>2015-10-20T14:00:33Z</time>
      </trkpt>
      <trkpt lat="44.05432" lon="0.34512">
        <ele>61</ele>
        <time>2015-10-20T14:00:43Z</time>
      </trkpt>
      <trkpt lat="44.05429" lon="0.34525">
        <ele>61</ele>
        <time>2015-10-20T14:00:54Z</time>
      </trkpt>
      <trkpt lat="44.05428" lon="0.34538">
        <ele>61</ele>
        <time>2015-10-20T14:01:02Z</time>
      </trkpt>
      <trkpt lat="44.05429" lon="0.34551">
        <ele>61</ele>
        <time>2015-10-20T14:01:11Z</time>
      </trkpt>
      <trkpt lat="44.0543" lon="0.34564">
        <ele>61</ele>
        <time>2015-10-20T14:01:21Z</time>
      </trkpt>
      <trkpt lat="44.05431" lon="0.34577">
        <ele>61</ele>
        <time>2015-10-20T14:01:28Z</time>
      </trkpt>
      <trkpt lat="44.05431" lon="0.34591">
        <ele>61</ele>
        <time>2015-10-20T14:01:37Z</time>
      </trkpt>
      <trkpt lat="44.05433" lon="0.34604">
        <ele>61</ele>
        <time>2015-10-20T14:01:46Z</time>
      </trkpt>
      <trkpt lat="44.05433" lon="0.34618">
        <ele>61</ele>
        <time>2015-10-20T14:01:53Z</time>
      </trkpt>
      <trkpt lat="44.05433" lon="0.34631">
        <ele>61</ele>
        <time>2015-10-20T14:02:02Z</time>
      </trkpt>
      <trkpt lat="44.05433" lon="0.34644">
        <ele>61</ele>
        <time>2015-10-20T14:02:10Z</time>
      </trkpt>
      <trkpt lat="44.05432" lon="0.34657">
        <ele>61</ele>
        <time>2015-10-20T14:02:18Z</time>
      </trkpt>
      <trkpt lat="44.0543" lon="0.34671">
        <ele>61</ele>
        <time>2015-10-20T14:02:28Z</time>
      </trkpt>
      <trkpt lat="44.05429" lon="0.34686">
        <ele>61</ele>
        <time>2015-10-20T14:02:36Z</time>
      </trkpt>
      <trkpt lat="44.05428" lon="0.34699">
        <ele>61</ele>
        <time>2015-10-20T14:02:45Z</time>
      </trkpt>
      <trkpt lat="44.05428" lon="0.34712">
        <ele>61</ele>
        <time>2015-10-20T14:02:53Z</time>
      </trkpt>
      <trkpt lat="44.05428" lon="0.34726">
        <ele>61</ele>
        <time>2015-10-20T14:03:01Z</time>
      </trkpt>
      <trkpt lat="44.05429" lon="0.34739">
        <ele>61</ele>
        <time>2015-10-20T14:03:10Z</time>
      </trkpt>
      <trkpt lat="44.0543" lon="0.34752">
        <ele>61</ele>
        <time>2015-10-20T14:03:17Z</time>
      </trkpt>
      <trkpt lat="44.05431" lon="0.34766">
        <ele>61</ele>
        <time>2015-10-20T14:03:23Z</time>
      </trkpt>
      <trkpt lat="44.05433" lon="0.3478">
        <ele>61</ele>
        <time>2015-10-20T14:03:31Z</time>
      </trkpt>
      <trkpt lat="44.05432" lon="0.34793">
        <ele>61</ele>
        <time>2015-10-20T14:03:38Z</time>
      </trkpt>
      <trkpt lat="44.05431" lon="0.34807">
        <ele>61</ele>
        <time>2015-10-20T14:03:44Z</time>
      </trkpt>
      <trkpt lat="44.05431" lon="0.3482">
        <ele>61</ele>
        <time>2015-10-20T14:03:53Z</time>
      </trkpt>
      <trkpt lat="44.05429" lon="0.34833">
        <ele>61</ele>
        <time>2015-10-20T14:04:01Z</time>
      </trkpt>
      <trkpt lat="44.05428" lon="0.34846">
        <ele>61</ele>
        <time>2015-10-20T14:04:08Z</time>
      </trkpt>
      <trkpt lat="44.05427" lon="0.34859">
        <ele>61</ele>
        <time>2015-10-20T14:04:17Z</time>
      </trkpt>
      <trkpt lat="44.05426" lon="0.34872">
        <ele>61</ele>
        <time>2015-10-20T14:04:25Z</time>
      </trkpt>
      <trkpt lat="44.05425" lon="0.34886">
        <ele>61</ele>
        <time>2015-10-20T14:04:32Z</time>
      </trkpt>
      <trkpt lat="44.05425" lon="0.349">
        <ele>61</ele>
        <time>2015-10-20T14:04:41Z</time>
      </trkpt>
      <trkpt lat="44.05423" lon="0.34913">
        <ele>63</ele>
        <time>2015-10-20T14:04:48Z</time>
      </trkpt>
      <trkpt lat="44.05422" lon="0.34927">
        <ele>63</ele>
        <time>2015-10-20T14:04:56Z</time>
      </trkpt>
      <trkpt lat="44.05421" lon="0.34941">
        <ele>63</ele>
        <time>2015-10-20T14:05:05Z</time>
      </trkpt>
      <trkpt lat="44.0542" lon="0.34954">
        <ele>63</ele>
        <time>2015-10-20T14:05:12Z</time>
      </trkpt>
      <trkpt lat="44.05421" lon="0.34968">
        <ele>63</ele>
        <time>2015-10-20T14:05:22Z</time>
      </trkpt>
      <trkpt lat="44.05421" lon="0.34981">
        <ele>63</ele>
        <time>2015-10-20T14:05:30Z</time>
      </trkpt>
      <trkpt lat="44.05421" lon="0.34994">
        <ele>63</ele>
        <time>2015-10-20T14:05:38Z</time>
      </trkpt>
      <trkpt lat="44.05421" lon="0.35007">
        <ele>63</ele>
        <time>2015-10-20T14:05:48Z</time>
      </trkpt>
      <trkpt lat="44.0542" lon="0.3502">
        <ele>63</ele>
        <time>2015-10-20T14:05:57Z</time>
      </trkpt>
      <trkpt lat="44.05419" lon="0.35033">
        <ele>63</ele>
        <time>2015-10-20T14:06:09Z</time>
      </trkpt>
      <trkpt lat="44.05421" lon="0.35045">
        <ele>63</ele>
        <time>2015-10-20T14:06:25Z</time>
      </trkpt>
      <trkpt lat="44.05418" lon="0.35057">
        <ele>63</ele>
        <time>2015-10-20T14:07:42Z</time>
      </trkpt>
      <trkpt lat="44.05415" lon="0.3507">
        <ele>63</ele>
        <time>2015-10-20T14:07:53Z</time>
      </trkpt>
      <trkpt lat="44.05414" lon="0.35084">
        <ele>63</ele>
        <time>2015-10-20T14:08:04Z</time>
      </trkpt>
      <trkpt lat="44.05412" lon="0.35097">
        <ele>63</ele>
        <time>2015-10-20T14:08:13Z</time>
      </trkpt>
      <trkpt lat="44.05411" lon="0.3511">
        <ele>63</ele>
        <time>2015-10-20T14:08:24Z</time>
      </trkpt>
      <trkpt lat="44.0541" lon="0.35124">
        <ele>63</ele>
        <time>2015-10-20T14:08:33Z</time>
      </trkpt>
      <trkpt lat="44.05408" lon="0.35137">
        <ele>63</ele>
        <time>2015-10-20T14:08:40Z</time>
      </trkpt>
      <trkpt lat="44.05406" lon="0.3515">
        <ele>63</ele>
        <time>2015-10-20T14:08:49Z</time>
      </trkpt>
      <trkpt lat="44.05405" lon="0.35163">
        <ele>63</ele>
        <time>2015-10-20T14:08:57Z</time>
      </trkpt>
      <trkpt lat="44.05403" lon="0.35176">
        <ele>63</ele>
        <time>2015-10-20T14:09:04Z</time>
      </trkpt>
      <trkpt lat="44.05402" lon="0.35188">
        <ele>63</ele>
        <time>2015-10-20T14:09:13Z</time>
      </trkpt>
      <trkpt lat="44.054" lon="0.35202">
        <ele>59</ele>
        <time>2015-10-20T14:09:20Z</time>
      </trkpt>
      <trkpt lat="44.05398" lon="0.35215">
        <ele>59</ele>
        <time>2015-10-20T14:09:28Z</time>
      </trkpt>
      <trkpt lat="44.05397" lon="0.35228">
        <ele>59</ele>
        <time>2015-10-20T14:09:37Z</time>
      </trkpt>
      <trkpt lat="44.05395" lon="0.35242">
        <ele>59</ele>
        <time>2015-10-20T14:09:44Z</time>
      </trkpt>
      <trkpt lat="44.05394" lon="0.35255">
        <ele>59</ele>
        <time>2015-10-20T14:09:52Z</time>
      </trkpt>
      <trkpt lat="44.05392" lon="0.35269">
        <ele>59</ele>
        <time>2015-10-20T14:10:02Z</time>
      </trkpt>
      <trkpt lat="44.0539" lon="0.35282">
        <ele>59</ele>
        <time>2015-10-20T14:10:10Z</time>
      </trkpt>
      <trkpt lat="44.05389" lon="0.35294">
        <ele>59</ele>
        <time>2015-10-20T14:10:19Z</time>
      </trkpt>
      <trkpt lat="44.05391" lon="0.35307">
        <ele>59</ele>
        <time>2015-10-20T14:10:27Z</time>
      </trkpt>
      <trkpt lat="44.05393" lon="0.3532">
        <ele>59</ele>
        <time>2015-10-20T14:10:36Z</time>
      </trkpt>
      <trkpt lat="44.05392" lon="0.35332">
        <ele>59</ele>
        <time>2015-10-20T14:10:47Z</time>
      </trkpt>
      <trkpt lat="44.05391" lon="0.35345">
        <ele>59</ele>
        <time>2015-10-20T14:10:58Z</time>
      </trkpt>
      <trkpt lat="44.05389" lon="0.35358">
        <ele>59</ele>
        <time>2015-10-20T14:11:10Z</time>
      </trkpt>
      <trkpt lat="44.05386" lon="0.3537">
        <ele>59</ele>
        <time>2015-10-20T14:11:19Z</time>
      </trkpt>
      <trkpt lat="44.05383" lon="0.35383">
        <ele>59</ele>
        <time>2015-10-20T14:11:28Z</time>
      </trkpt>
      <trkpt lat="44.05379" lon="0.35396">
        <ele>59</ele>
        <time>2015-10-20T14:11:35Z</time>
      </trkpt>
      <trkpt lat="44.05377" lon="0.35409">
        <ele>59</ele>
        <time>2015-10-20T14:11:44Z</time>
      </trkpt>
      <trkpt lat="44.05372" lon="0.35421">
        <ele>59</ele>
        <time>2015-10-20T14:11:54Z</time>
      </trkpt>
      <trkpt lat="44.05368" lon="0.35433">
        <ele>59</ele>
        <time>2015-10-20T14:12:01Z</time>
      </trkpt>
      <trkpt lat="44.05366" lon="0.35447">
        <ele>59</ele>
        <time>2015-10-20T14:12:11Z</time>
      </trkpt>
      <trkpt lat="44.05363" lon="0.35459">
        <ele>59</ele>
        <time>2015-10-20T14:12:19Z</time>
      </trkpt>
      <trkpt lat="44.05359" lon="0.35471">
        <ele>55</ele>
        <time>2015-10-20T14:12:27Z</time>
      </trkpt>
      <trkpt lat="44.05356" lon="0.35484">
        <ele>55</ele>
        <time>2015-10-20T14:12:37Z</time>
      </trkpt>
      <trkpt lat="44.05354" lon="0.35497">
        <ele>55</ele>
        <time>2015-10-20T14:12:46Z</time>
      </trkpt>
      <trkpt lat="44.05349" lon="0.35509">
        <ele>55</ele>
        <time>2015-10-20T14:12:55Z</time>
      </trkpt>
      <trkpt lat="44.05347" lon="0.35523">
        <ele>55</ele>
        <time>2015-10-20T14:13:03Z</time>
      </trkpt>
      <trkpt lat="44.05344" lon="0.35535">
        <ele>55</ele>
        <time>2015-10-20T14:13:11Z</time>
      </trkpt>
      <trkpt lat="44.0534" lon="0.35547">
        <ele>55</ele>
        <time>2015-10-20T14:13:20Z</time>
      </trkpt>
      <trkpt lat="44.05336" lon="0.35558">
        <ele>55</ele>
        <time>2015-10-20T14:13:26Z</time>
      </trkpt>
      <trkpt lat="44.05333" lon="0.35571">
        <ele>55</ele>
        <time>2015-10-20T14:13:33Z</time>
      </trkpt>
      <trkpt lat="44.05328" lon="0.35583">
        <ele>55</ele>
        <time>2015-10-20T14:13:42Z</time>
      </trkpt>
      <trkpt lat="44.05325" lon="0.35596">
        <ele>51</ele>
        <time>2015-10-20T14:13:50Z</time>
      </trkpt>
      <trkpt lat="44.05325" lon="0.35609">
        <ele>51</ele>
        <time>2015-10-20T14:13:58Z</time>
      </trkpt>
      <trkpt lat="44.05323" lon="0.35623">
        <ele>51</ele>
        <time>2015-10-20T14:14:07Z</time>
      </trkpt>
      <trkpt lat="44.05322" lon="0.35636">
        <ele>51</ele>
        <time>2015-10-20T14:14:14Z</time>
      </trkpt>
      <trkpt lat="44.05322" lon="0.35649">
        <ele>51</ele>
        <time>2015-10-20T14:14:23Z</time>
      </trkpt>
      <trkpt lat="44.0532" lon="0.35662">
        <ele>51</ele>
        <time>2015-10-20T14:14:31Z</time>
      </trkpt>
      <trkpt lat="44.05318" lon="0.35674">
        <ele>51</ele>
        <time>2015-10-20T14:14:38Z</time>
      </trkpt>
      <trkpt lat="44.05318" lon="0.35688">
        <ele>51</ele>
        <time>2015-10-20T14:14:48Z</time>
      </trkpt>
      <trkpt lat="44.05317" lon="0.35702">
        <ele>51</ele>
        <time>2015-10-20T14:14:55Z</time>
      </trkpt>
      <trkpt lat="44.05315" lon="0.35715">
        <ele>47</ele>
        <time>2015-10-20T14:15:03Z</time>
      </trkpt>
      <trkpt lat="44.05316" lon="0.35728">
        <ele>47</ele>
        <time>2015-10-20T14:15:11Z</time>
      </trkpt>
      <trkpt lat="44.05316" lon="0.35741">
        <ele>47</ele>
        <time>2015-10-20T14:15:18Z</time>
      </trkpt>
      <trkpt lat="44.05317" lon="0.35755">
        <ele>47</ele>
        <time>2015-10-20T14:15:25Z</time>
      </trkpt>
      <trkpt lat="44.05318" lon="0.35768">
        <ele>47</ele>
        <time>2015-10-20T14:15:32Z</time>
      </trkpt>
      <trkpt lat="44.05319" lon="0.35781">
        <ele>47</ele>
        <time>2015-10-20T14:15:38Z</time>
      </trkpt>
      <trkpt lat="44.05318" lon="0.35794">
        <ele>47</ele>
        <time>2015-10-20T14:15:43Z</time>
      </trkpt>
      <trkpt lat="44.05317" lon="0.35807">
        <ele>47</ele>
        <time>2015-10-20T14:15:49Z</time>
      </trkpt>
      <trkpt lat="44.05316" lon="0.3582">
        <ele>47</ele>
        <time>2015-10-20T14:15:56Z</time>
      </trkpt>
      <trkpt lat="44.05314" lon="0.35832">
        <ele>47</ele>
        <time>2015-10-20T14:16:02Z</time>
      </trkpt>
      <trkpt lat="44.05313" lon="0.35846">
        <ele>47</ele>
        <time>2015-10-20T14:16:08Z</time>
      </trkpt>
      <trkpt lat="44.05311" lon="0.35859">
        <ele>47</ele>
        <time>2015-10-20T14:16:16Z</time>
      </trkpt>
      <trkpt lat="44.05308" lon="0.35872">
        <ele>47</ele>
        <time>2015-10-20T14:16:24Z</time>
      </trkpt>
      <trkpt lat="44.05306" lon="0.35885">
        <ele>43</ele>
        <time>2015-10-20T14:16:38Z</time>
      </trkpt>
      <trkpt lat="44.05305" lon="0.35899">
        <ele>43</ele>
        <time>2015-10-20T14:16:47Z</time>
      </trkpt>
      <trkpt lat="44.05304" lon="0.35912">
        <ele>43</ele>
        <time>2015-10-20T14:16:54Z</time>
      </trkpt>
      <trkpt lat="44.05302" lon="0.35926">
        <ele>43</ele>
        <time>2015-10-20T14:17:03Z</time>
      </trkpt>
      <trkpt lat="44.05301" lon="0.35939">
        <ele>43</ele>
        <time>2015-10-20T14:17:11Z</time>
      </trkpt>
      <trkpt lat="44.05299" lon="0.35953">
        <ele>43</ele>
        <time>2015-10-20T14:17:18Z</time>
      </trkpt>
      <trkpt lat="44.05297" lon="0.35965">
        <ele>43</ele>
        <time>2015-10-20T14:17:27Z</time>
      </trkpt>
      <trkpt lat="44.0529" lon="0.35975">
        <ele>43</ele>
        <time>2015-10-20T14:18:01Z</time>
      </trkpt>
      <trkpt lat="44.05288" lon="0.35989">
        <ele>43</ele>
        <time>2015-10-20T14:18:11Z</time>
      </trkpt>
      <trkpt lat="44.05286" lon="0.36001">
        <ele>43</ele>
        <time>2015-10-20T14:18:19Z</time>
      </trkpt>
      <trkpt lat="44.05284" lon="0.36014">
        <ele>43</ele>
        <time>2015-10-20T14:18:26Z</time>
      </trkpt>
      <trkpt lat="44.05283" lon="0.36027">
        <ele>43</ele>
        <time>2015-10-20T14:18:35Z</time>
      </trkpt>
      <trkpt lat="44.05281" lon="0.3604">
        <ele>43</ele>
        <time>2015-10-20T14:18:42Z</time>
      </trkpt>
      <trkpt lat="44.05279" lon="0.36053">
        <ele>43</ele>
        <time>2015-10-20T14:18:51Z</time>
      </trkpt>
      <trkpt lat="44.05278" lon="0.36066">
        <ele>43</ele>
        <time>2015-10-20T14:19:00Z</time>
      </trkpt>
      <trkpt lat="44.05276" lon="0.36079">
        <ele>43</ele>
        <time>2015-10-20T14:19:07Z</time>
      </trkpt>
      <trkpt lat="44.05275" lon="0.36091">
        <ele>43</ele>
        <time>2015-10-20T14:19:16Z</time>
      </trkpt>
      <trkpt lat="44.05273" lon="0.36104">
        <ele>43</ele>
        <time>2015-10-20T14:19:25Z</time>
      </trkpt>
      <trkpt lat="44.05273" lon="0.36118">
        <ele>43</ele>
        <time>2015-10-20T14:19:35Z</time>
      </trkpt>
      <trkpt lat="44.05273" lon="0.36132">
        <ele>43</ele>
        <time>2015-10-20T14:19:46Z</time>
      </trkpt>
      <trkpt lat="44.05269" lon="0.36144">
        <ele>43</ele>
        <time>2015-10-20T14:19:54Z</time>
      </trkpt>
      <trkpt lat="44.05265" lon="0.36155">
        <ele>43</ele>
        <time>2015-10-20T14:20:08Z</time>
      </trkpt>
      <trkpt lat="44.05262" lon="0.36167">
        <ele>43</ele>
        <time>2015-10-20T14:20:39Z</time>
      </trkpt>
      <trkpt lat="44.05254" lon="0.36174">
        <ele>43</ele>
        <time>2015-10-20T14:21:05Z</time>
      </trkpt>
      <trkpt lat="44.05246" lon="0.3618">
        <ele>43</ele>
        <time>2015-10-20T14:21:19Z</time>
      </trkpt>
      <trkpt lat="44.05237" lon="0.36183">
        <ele>43</ele>
        <time>2015-10-20T14:21:29Z</time>
      </trkpt>
      <trkpt lat="44.05229" lon="0.36189">
        <ele>43</ele>
        <time>2015-10-20T14:21:42Z</time>
      </trkpt>
      <trkpt lat="44.0522" lon="0.36193">
        <ele>43</ele>
        <time>2015-10-20T14:21:51Z</time>
      </trkpt>
      <trkpt lat="44.05212" lon="0.36199">
        <ele>37</ele>
        <time>2015-10-20T14:22:02Z</time>
      </trkpt>
      <trkpt lat="44.05203" lon="0.36203">
        <ele>37</ele>
        <time>2015-10-20T14:22:10Z</time>
      </trkpt>
      <trkpt lat="44.05194" lon="0.36208">
        <ele>37</ele>
        <time>2015-10-20T14:22:20Z</time>
      </trkpt>
      <trkpt lat="44.05184" lon="0.36211">
        <ele>37</ele>
        <time>2015-10-20T14:22:29Z</time>
      </trkpt>
      <trkpt lat="44.05175" lon="0.36212">
        <ele>37</ele>
        <time>2015-10-20T14:22:42Z</time>
      </trkpt>
      <trkpt lat="44.05165" lon="0.36212">
        <ele>37</ele>
        <time>2015-10-20T14:22:53Z</time>
      </trkpt>
      <trkpt lat="44.05156" lon="0.36213">
        <ele>37</ele>
        <time>2015-10-20T14:23:13Z</time>
      </trkpt>
      <trkpt lat="44.05147" lon="0.36215">
        <ele>37</ele>
        <time>2015-10-20T14:23:29Z</time>
      </trkpt>
      <trkpt lat="44.05138" lon="0.36214">
        <ele>37</ele>
        <time>2015-10-20T14:24:00Z</time>
      </trkpt>
      <trkpt lat="44.05128" lon="0.36214">
        <ele>37</ele>
        <time>2015-10-20T14:24:32Z</time>
      </trkpt>
      <trkpt lat="44.05119" lon="0.36214">
        <ele>37</ele>
        <time>2015-10-20T14:24:42Z</time>
      </trkpt>
      <trkpt lat="44.0511" lon="0.36213">
        <ele>37</ele>
        <time>2015-10-20T14:24:50Z</time>
      </trkpt>
      <trkpt lat="44.05101" lon="0.36211">
        <ele>37</ele>
        <time>2015-10-20T14:24:59Z</time>
      </trkpt>
      <trkpt lat="44.05091" lon="0.3621">
        <ele>37</ele>
        <time>2015-10-20T14:25:07Z</time>
      </trkpt>
      <trkpt lat="44.05081" lon="0.36209">
        <ele>41</ele>
        <time>2015-10-20T14:25:15Z</time>
      </trkpt>
      <trkpt lat="44.05072" lon="0.36207">
        <ele>41</ele>
        <time>2015-10-20T14:25:24Z</time>
      </trkpt>
      <trkpt lat="44.05062" lon="0.36206">
        <ele>41</ele>
        <time>2015-10-20T14:25:31Z</time>
      </trkpt>
      <trkpt lat="44.05053" lon="0.36205">
        <ele>41</ele>
        <time>2015-10-20T14:25:40Z</time>
      </trkpt>
      <trkpt lat="44.05043" lon="0.36204">
        <ele>41</ele>
        <time>2015-10-20T14:25:48Z</time>
      </trkpt>
      <trkpt lat="44.05033" lon="0.36202">
        <ele>41</ele>
        <time>2015-10-20T14:25:55Z</time>
      </trkpt>
      <trkpt lat="44.05024" lon="0.36201">
        <ele>41</ele>
        <time>2015-10-20T14:26:05Z</time>
      </trkpt>
      <trkpt lat="44.05014" lon="0.362">
        <ele>41</ele>
        <time>2015-10-20T14:26:14Z</time>
      </trkpt>
      <trkpt lat="44.05004" lon="0.36201">
        <ele>41</ele>
        <time>2015-10-20T14:26:24Z</time>
      </trkpt>
      <trkpt lat="44.04995" lon="0.36202">
        <ele>36</ele>
        <time>2015-10-20T14:26:36Z</time>
      </trkpt>
      <trkpt lat="44.04986" lon="0.36202">
        <ele>36</ele>
        <time>2015-10-20T14:26:46Z</time>
      </trkpt>
      <trkpt lat="44.04977" lon="0.36202">
        <ele>36</ele>
        <time>2015-10-20T14:26:56Z</time>
      </trkpt>
      <trkpt lat="44.04968" lon="0.36207">
        <ele>36</ele>
        <time>2015-10-20T14:27:04Z</time>
      </trkpt>
      <trkpt lat="44.04959" lon="0.36213">
        <ele>32</ele>
        <time>2015-10-20T14:27:14Z</time>
      </trkpt>
      <trkpt lat="44.04953" lon="0.36222">
        <ele>32</ele>
        <time>2015-10-20T14:27:26Z</time>
      </trkpt>
      <trkpt lat="44.04947" lon="0.36231">
        <ele>32</ele>
        <time>2015-10-20T14:27:39Z</time>
      </trkpt>
      <trkpt lat="44.04941" lon="0.36241">
        <ele>26</ele>
        <time>2015-10-20T14:27:49Z</time>
      </trkpt>
      <trkpt lat="44.04938" lon="0.36253">
        <ele>26</ele>
        <time>2015-10-20T14:27:59Z</time>
      </trkpt>
      <trkpt lat="44.04937" lon="0.36266">
        <ele>26</ele>
        <time>2015-10-20T14:28:07Z</time>
      </trkpt>
      <trkpt lat="44.04936" lon="0.36278">
        <ele>26</ele>
        <time>2015-10-20T14:28:15Z</time>
      </trkpt>
      <trkpt lat="44.04936" lon="0.36292">
        <ele>21</ele>
        <time>2015-10-20T14:28:25Z</time>
      </trkpt>
      <trkpt lat="44.04933" lon="0.36304">
        <ele>21</ele>
        <time>2015-10-20T14:28:33Z</time>
      </trkpt>
      <trkpt lat="44.04926" lon="0.36315">
        <ele>21</ele>
        <time>2015-10-20T14:28:41Z</time>
      </trkpt>
      <trkpt lat="44.04918" lon="0.36323">
        <ele>17</ele>
        <time>2015-10-20T14:28:48Z</time>
      </trkpt>
      <trkpt lat="44.0491" lon="0.36332">
        <ele>17</ele>
        <time>2015-10-20T14:28:54Z</time>
      </trkpt>
      <trkpt lat="44.04902" lon="0.36341">
        <ele>17</ele>
        <time>2015-10-20T14:29:00Z</time>
      </trkpt>
      <trkpt lat="44.04895" lon="0.3635">
        <ele>17</ele>
        <time>2015-10-20T14:29:07Z</time>
      </trkpt>
      <trkpt lat="44.04887" lon="0.3636">
        <ele>17</ele>
        <time>2015-10-20T14:29:13Z</time>
      </trkpt>
      <trkpt lat="44.04881" lon="0.36369">
        <ele>17</ele>
        <time>2015-10-20T14:29:19Z</time>
      </trkpt>
      <trkpt lat="44.04874" lon="0.3638">
        <ele>12</ele>
        <time>2015-10-20T14:29:25Z</time>
      </trkpt>
      <trkpt lat="44.04868" lon="0.3639">
        <ele>12</ele>
        <time>2015-10-20T14:29:33Z</time>
      </trkpt>
      <trkpt lat="44.04863" lon="0.364">
        <ele>12</ele>
        <time>2015-10-20T14:29:40Z</time>
      </trkpt>
      <trkpt lat="44.04856" lon="0.36411">
        <ele>12</ele>
        <time>2015-10-20T14:29:47Z</time>
      </trkpt>
      <trkpt lat="44.04851" lon="0.36423">
        <ele>12</ele>
        <time>2015-10-20T14:29:56Z</time>
      </trkpt>
      <trkpt lat="44.04845" lon="0.36433">
        <ele>12</ele>
        <time>2015-10-20T14:30:02Z</time>
      </trkpt>
      <trkpt lat="44.04839" lon="0.36444">
        <ele>12</ele>
        <time>2015-10-20T14:30:10Z</time>
      </trkpt>
      <trkpt lat="44.04834" lon="0.36455">
        <ele>12</ele>
        <time>2015-10-20T14:30:19Z</time>
      </trkpt>
      <trkpt lat="44.0483" lon="0.36467">
        <ele>12</ele>
        <time>2015-10-20T14:30:27Z</time>
      </trkpt>
      <trkpt lat="44.04824" lon="0.36477">
        <ele>12</ele>
        <time>2015-10-20T14:30:38Z</time>
      </trkpt>
      <trkpt lat="44.04816" lon="0.36485">
        <ele>8</ele>
        <time>2015-10-20T14:30:45Z</time>
      </trkpt>
      <trkpt lat="44.04819" lon="0.36496">
        <ele>8</ele>
        <time>2015-10-20T14:30:58Z</time>
      </trkpt>
      <trkpt lat="44.04825" lon="0.36507">
        <ele>8</ele>
        <time>2015-10-20T14:31:07Z</time>
      </trkpt>
      <trkpt lat="44.04831" lon="0.36518">
        <ele>8</ele>
        <time>2015-10-20T14:31:14Z</time>
      </trkpt>
      <trkpt lat="44.04838" lon="0.36529">
        <ele>8</ele>
        <time>2015-10-20T14:31:23Z</time>
      </trkpt>
      <trkpt lat="44.04842" lon="0.3654">
        <ele>8</ele>
        <time>2015-10-20T14:31:34Z</time>
      </trkpt>
    </trkseg>
  </trk>
</gpx>